SAS954 KLAX-EKCH
Flight info
| Callsign | SAS954 |
|---|---|
| Flight time | N/A |
| Altitude | 37000 |
| Route | ORCKA5 LAS Q70 BLIPP Q842 WINEN DCT DTA DCT OCS DCT DIK Q945 SEGAP DCT KAIIN DCT 57N090W DCT BODRA/N0451F390 DCT 65N070W/M079F390 DCT EPMAN DCT 67N050W 68N040W 68N030W 67N020W 65N010W DCT IPTON/N0448F390 DCT KRM DCT TESPI |
| Aircraft | A333/H-SDE3GHIJ2J3J5M1RVWXY/LB2D1 |
Departure
| Time | 2026-04-26 08:04 |
|---|---|
| Airport | Los Angeles International Airport (KLAX) |
Arrival
| Time | N/A |
|---|---|
| Airport | Copenhagen Kastrup Airport (EKCH) |
| Time | Latitude | Longitude | Altitude | Speed | Heading |
|---|---|---|---|---|---|
| 2026-04-26 07:28 | 33.94177 | -118.41101 | 125 ft | 0 kts | 82° |
| 2026-04-26 07:53 | 33.94176 | -118.41111 | 129 ft | 4 kts | 82° |
| 2026-04-26 07:53 | 33.94172 | -118.41144 | 127 ft | 4 kts | 85° |
| 2026-04-26 07:53 | 33.94178 | -118.41175 | 126 ft | 4 kts | 137° |
| 2026-04-26 07:54 | 33.94207 | -118.41199 | 125 ft | 8 kts | 139° |
| 2026-04-26 07:54 | 33.94240 | -118.41219 | 124 ft | 0 kts | 178° |
| 2026-04-26 07:55 | 33.94238 | -118.41219 | 124 ft | 3 kts | 176° |
| 2026-04-26 07:56 | 33.94216 | -118.41216 | 124 ft | 3 kts | 173° |
| 2026-04-26 07:56 | 33.94159 | -118.41207 | 126 ft | 13 kts | 172° |
| 2026-04-26 07:56 | 33.94072 | -118.41192 | 129 ft | 14 kts | 173° |
| 2026-04-26 07:56 | 33.93987 | -118.41179 | 126 ft | 10 kts | 172° |
| 2026-04-26 07:57 | 33.93924 | -118.41169 | 127 ft | 8 kts | 172° |
| 2026-04-26 07:57 | 33.93881 | -118.41162 | 124 ft | 5 kts | 174° |
| 2026-04-26 07:57 | 33.93847 | -118.41158 | 126 ft | 5 kts | 175° |
| 2026-04-26 07:57 | 33.93793 | -118.41147 | 126 ft | 10 kts | 161° |
| 2026-04-26 07:58 | 33.93770 | -118.41072 | 124 ft | 12 kts | 84° |
| 2026-04-26 07:58 | 33.93781 | -118.40955 | 129 ft | 16 kts | 83° |
| 2026-04-26 07:58 | 33.93796 | -118.40805 | 125 ft | 20 kts | 80° |
| 2026-04-26 07:58 | 33.93814 | -118.40632 | 127 ft | 22 kts | 83° |
| 2026-04-26 07:59 | 33.93831 | -118.40449 | 128 ft | 21 kts | 83° |
| 2026-04-26 07:59 | 33.93848 | -118.40293 | 128 ft | 17 kts | 82° |
| 2026-04-26 07:59 | 33.93862 | -118.40166 | 125 ft | 14 kts | 82° |
| 2026-04-26 07:59 | 33.93874 | -118.40065 | 128 ft | 11 kts | 82° |
| 2026-04-26 08:00 | 33.93882 | -118.39977 | 124 ft | 12 kts | 85° |
| 2026-04-26 08:00 | 33.93892 | -118.39864 | 127 ft | 18 kts | 84° |
| 2026-04-26 08:00 | 33.93908 | -118.39703 | 128 ft | 21 kts | 80° |
| 2026-04-26 08:00 | 33.93927 | -118.39515 | 125 ft | 24 kts | 83° |
| 2026-04-26 08:01 | 33.93948 | -118.39302 | 126 ft | 27 kts | 83° |
| 2026-04-26 08:01 | 33.93972 | -118.39068 | 126 ft | 29 kts | 82° |
| 2026-04-26 08:01 | 33.93998 | -118.38817 | 124 ft | 31 kts | 84° |
| 2026-04-26 08:01 | 33.94024 | -118.38549 | 127 ft | 33 kts | 83° |
| 2026-04-26 08:02 | 33.94052 | -118.38277 | 126 ft | 31 kts | 83° |
| 2026-04-26 08:02 | 33.94075 | -118.38071 | 129 ft | 14 kts | 83° |
| 2026-04-26 08:02 | 33.94030 | -118.38004 | 125 ft | 9 kts | 165° |
| 2026-04-26 08:02 | 33.93993 | -118.38017 | 125 ft | 3 kts | 232° |
| 2026-04-26 08:03 | 33.93987 | -118.38034 | 127 ft | 1 kts | 250° |
| 2026-04-26 08:03 | 33.93983 | -118.38066 | 125 ft | 11 kts | 264° |
| 2026-04-26 08:03 | 33.93950 | -118.38369 | 126 ft | 64 kts | 262° |
| 2026-04-26 08:03 | 33.93873 | -118.39109 | 128 ft | 114 kts | 263° |
| 2026-04-26 08:04 | 33.93758 | -118.40250 | 127 ft | 159 kts | 263° |
| 2026-04-26 08:04 | 33.93611 | -118.41656 | 634 ft | 163 kts | 264° |
| 2026-04-26 08:04 | 33.93496 | -118.43001 | 1398 ft | 168 kts | 263° |
| 2026-04-26 08:04 | 33.93312 | -118.44445 | 1682 ft | 187 kts | 260° |
| 2026-04-26 08:05 | 33.92858 | -118.46012 | 1840 ft | 214 kts | 237° |
| 2026-04-26 08:05 | 33.91688 | -118.47239 | 2173 ft | 232 kts | 212° |
| 2026-04-26 08:05 | 33.90242 | -118.48165 | 2722 ft | 239 kts | 210° |
| 2026-04-26 08:05 | 33.88725 | -118.49088 | 3188 ft | 249 kts | 210° |
| 2026-04-26 08:06 | 33.87166 | -118.50047 | 3795 ft | 253 kts | 210° |
| 2026-04-26 08:06 | 33.85598 | -118.51025 | 4455 ft | 255 kts | 211° |
| 2026-04-26 08:06 | 33.84014 | -118.51997 | 5151 ft | 257 kts | 207° |
| 2026-04-26 08:06 | 33.82298 | -118.52672 | 5846 ft | 261 kts | 197° |
| 2026-04-26 08:07 | 33.80521 | -118.53151 | 6554 ft | 263 kts | 195° |
| 2026-04-26 08:07 | 33.78721 | -118.53601 | 7218 ft | 265 kts | 195° |
| 2026-04-26 08:07 | 33.76864 | -118.53844 | 7881 ft | 272 kts | 181° |
| 2026-04-26 08:07 | 33.74976 | -118.53482 | 8566 ft | 278 kts | 171° |
| 2026-04-26 08:08 | 33.73084 | -118.52904 | 9239 ft | 281 kts | 169° |
| 2026-04-26 08:08 | 33.71223 | -118.52095 | 9847 ft | 290 kts | 155° |
| 2026-04-26 08:08 | 33.69656 | -118.50548 | 10261 ft | 308 kts | 130° |
| 2026-04-26 08:08 | 33.68604 | -118.48160 | 10469 ft | 330 kts | 114° |
| 2026-04-26 08:09 | 33.67803 | -118.45549 | 10681 ft | 347 kts | 111° |
| 2026-04-26 08:09 | 33.66979 | -118.42737 | 10897 ft | 364 kts | 111° |
| 2026-04-26 08:09 | 33.66115 | -118.39832 | 11277 ft | 373 kts | 112° |
| 2026-04-26 08:09 | 33.65221 | -118.36870 | 11782 ft | 379 kts | 112° |
| 2026-04-26 08:10 | 33.64543 | -118.33781 | 12335 ft | 387 kts | 99° |
| 2026-04-26 08:10 | 33.64400 | -118.30642 | 12852 ft | 394 kts | 92° |
| 2026-04-26 08:10 | 33.64403 | -118.27324 | 13374 ft | 399 kts | 91° |
| 2026-04-26 08:10 | 33.64425 | -118.24019 | 13872 ft | 404 kts | 91° |
| 2026-04-26 08:11 | 33.64658 | -118.20638 | 14313 ft | 410 kts | 77° |
| 2026-04-26 08:11 | 33.65733 | -118.17467 | 14803 ft | 412 kts | 55° |
| 2026-04-26 08:11 | 33.67636 | -118.14934 | 15293 ft | 408 kts | 36° |
| 2026-04-26 08:11 | 33.69901 | -118.12873 | 15796 ft | 409 kts | 32° |
| 2026-04-26 08:12 | 33.72222 | -118.10875 | 16304 ft | 412 kts | 31° |
| 2026-04-26 08:12 | 33.74552 | -118.08853 | 16791 ft | 416 kts | 32° |
| 2026-04-26 08:12 | 33.76903 | -118.06786 | 17266 ft | 419 kts | 32° |
| 2026-04-26 08:12 | 33.79272 | -118.04683 | 17675 ft | 425 kts | 32° |
| 2026-04-26 08:13 | 33.81661 | -118.02551 | 18111 ft | 429 kts | 32° |
| 2026-04-26 08:13 | 33.84061 | -118.00399 | 18571 ft | 431 kts | 32° |
| 2026-04-26 08:13 | 33.86470 | -117.98235 | 18971 ft | 435 kts | 32° |
| 2026-04-26 08:13 | 33.88875 | -117.96072 | 19462 ft | 436 kts | 32° |
| 2026-04-26 08:14 | 33.91307 | -117.93874 | 19882 ft | 439 kts | 32° |
| 2026-04-26 08:14 | 33.93753 | -117.91644 | 20263 ft | 442 kts | 33° |
| 2026-04-26 08:14 | 33.96213 | -117.89397 | 20656 ft | 445 kts | 33° |
| 2026-04-26 08:14 | 33.98692 | -117.87128 | 21024 ft | 448 kts | 33° |
| 2026-04-26 08:15 | 34.01181 | -117.84851 | 21408 ft | 451 kts | 33° |
| 2026-04-26 08:15 | 34.02868 | -117.83306 | 21667 ft | 453 kts | 33° |
| 2026-04-26 08:15 | 34.05390 | -117.80995 | 22034 ft | 456 kts | 33° |
| 2026-04-26 08:15 | 34.07911 | -117.78633 | 22404 ft | 461 kts | 36° |
| 2026-04-26 08:16 | 34.10198 | -117.75882 | 22762 ft | 468 kts | 46° |
| 2026-04-26 08:16 | 34.12299 | -117.72857 | 23107 ft | 472 kts | 48° |
| 2026-04-26 08:16 | 34.14372 | -117.69770 | 23471 ft | 475 kts | 48° |
| 2026-04-26 08:16 | 34.16454 | -117.66659 | 23777 ft | 477 kts | 48° |
| 2026-04-26 08:17 | 34.18525 | -117.63568 | 24070 ft | 480 kts | 48° |
| 2026-04-26 08:17 | 34.20633 | -117.60424 | 24405 ft | 482 kts | 48° |
| 2026-04-26 08:17 | 34.22749 | -117.57274 | 24714 ft | 484 kts | 48° |
| 2026-04-26 08:17 | 34.24880 | -117.54101 | 24921 ft | 487 kts | 48° |
| 2026-04-26 08:18 | 34.27018 | -117.50914 | 25200 ft | 489 kts | 48° |
| 2026-04-26 08:18 | 34.29167 | -117.47707 | 25462 ft | 492 kts | 48° |
| 2026-04-26 08:18 | 34.31328 | -117.44482 | 25734 ft | 494 kts | 49° |
| 2026-04-26 08:18 | 34.33497 | -117.41239 | 26011 ft | 497 kts | 49° |
| 2026-04-26 08:19 | 34.35676 | -117.37978 | 26277 ft | 499 kts | 49° |
| 2026-04-26 08:19 | 34.37864 | -117.34701 | 26540 ft | 502 kts | 49° |
| 2026-04-26 08:19 | 34.40065 | -117.31402 | 26804 ft | 504 kts | 49° |
| 2026-04-26 08:19 | 34.42271 | -117.28093 | 27044 ft | 506 kts | 49° |
| 2026-04-26 08:20 | 34.44485 | -117.24769 | 27304 ft | 509 kts | 49° |
| 2026-04-26 08:20 | 34.46713 | -117.21422 | 27596 ft | 511 kts | 49° |
| 2026-04-26 08:20 | 34.48951 | -117.18056 | 27805 ft | 514 kts | 49° |
| 2026-04-26 08:20 | 34.51170 | -117.14719 | 28100 ft | 515 kts | 49° |
| 2026-04-26 08:21 | 34.53416 | -117.11334 | 28412 ft | 516 kts | 49° |
| 2026-04-26 08:21 | 34.55695 | -117.07961 | 28656 ft | 518 kts | 48° |
| 2026-04-26 08:21 | 34.58011 | -117.04587 | 28900 ft | 521 kts | 48° |
| 2026-04-26 08:21 | 34.60340 | -117.01202 | 29145 ft | 523 kts | 48° |
| 2026-04-26 08:22 | 34.62680 | -116.97796 | 29387 ft | 526 kts | 48° |
| 2026-04-26 08:22 | 34.65030 | -116.94372 | 29620 ft | 528 kts | 48° |
| 2026-04-26 08:22 | 34.67384 | -116.90936 | 29879 ft | 531 kts | 48° |
| 2026-04-26 08:22 | 34.69752 | -116.87476 | 30086 ft | 532 kts | 48° |
| 2026-04-26 08:23 | 34.72126 | -116.84005 | 30274 ft | 535 kts | 49° |
| 2026-04-26 08:23 | 34.74478 | -116.80561 | 30482 ft | 537 kts | 49° |
| 2026-04-26 08:23 | 34.76860 | -116.77068 | 30756 ft | 537 kts | 49° |
| 2026-04-26 08:23 | 34.79239 | -116.73573 | 31056 ft | 536 kts | 49° |
| 2026-04-26 08:24 | 34.81619 | -116.70077 | 31344 ft | 535 kts | 49° |
| 2026-04-26 08:24 | 34.83998 | -116.66578 | 31592 ft | 536 kts | 49° |
| 2026-04-26 08:24 | 34.86419 | -116.63120 | 31830 ft | 536 kts | 46° |
| 2026-04-26 08:24 | 34.88917 | -116.59763 | 32073 ft | 535 kts | 45° |
| 2026-04-26 08:25 | 34.91435 | -116.56416 | 32412 ft | 535 kts | 45° |
| 2026-04-26 08:25 | 34.93954 | -116.53064 | 32606 ft | 536 kts | 45° |
| 2026-04-26 08:25 | 34.96471 | -116.49706 | 32783 ft | 538 kts | 45° |
| 2026-04-26 08:25 | 34.98991 | -116.46337 | 33022 ft | 537 kts | 46° |
| 2026-04-26 08:26 | 35.01510 | -116.42964 | 33274 ft | 537 kts | 46° |
| 2026-04-26 08:26 | 35.03990 | -116.39636 | 33506 ft | 537 kts | 46° |
| 2026-04-26 08:26 | 35.06500 | -116.36265 | 33747 ft | 537 kts | 46° |
| 2026-04-26 08:26 | 35.09014 | -116.32886 | 33950 ft | 537 kts | 46° |
| 2026-04-26 08:27 | 35.11524 | -116.29508 | 34141 ft | 537 kts | 46° |
| 2026-04-26 08:27 | 35.14035 | -116.26124 | 34338 ft | 536 kts | 46° |
| 2026-04-26 08:27 | 35.16549 | -116.22734 | 34487 ft | 537 kts | 45° |
| 2026-04-26 08:27 | 35.19056 | -116.19349 | 34662 ft | 537 kts | 45° |
| 2026-04-26 08:28 | 35.21566 | -116.15957 | 34825 ft | 537 kts | 45° |
| 2026-04-26 08:28 | 35.24078 | -116.12560 | 35067 ft | 535 kts | 46° |
| 2026-04-26 08:28 | 35.26552 | -116.09207 | 35583 ft | 526 kts | 46° |
| 2026-04-26 08:28 | 35.28996 | -116.05894 | 35888 ft | 523 kts | 46° |
| 2026-04-26 08:29 | 35.31437 | -116.02583 | 36017 ft | 524 kts | 46° |
| 2026-04-26 08:29 | 35.33886 | -115.99257 | 36116 ft | 526 kts | 46° |
| 2026-04-26 08:29 | 35.36303 | -115.95974 | 36251 ft | 526 kts | 46° |
| 2026-04-26 08:29 | 35.38752 | -115.92642 | 36396 ft | 527 kts | 46° |
| 2026-04-26 08:30 | 35.43670 | -115.85941 | 36625 ft | 528 kts | 46° |
| 2026-04-26 08:30 | 35.46123 | -115.82593 | 36787 ft | 528 kts | 46° |
| 2026-04-26 08:30 | 35.48579 | -115.79237 | 36840 ft | 528 kts | 46° |
| 2026-04-26 08:31 | 35.53487 | -115.72522 | 36843 ft | 527 kts | 46° |
| 2026-04-26 08:31 | 35.58381 | -115.65814 | 36842 ft | 527 kts | 46° |
| 2026-04-26 08:32 | 35.63277 | -115.59089 | 36833 ft | 529 kts | 46° |
| 2026-04-26 08:32 | 35.68199 | -115.52316 | 36831 ft | 532 kts | 46° |
| 2026-04-26 08:33 | 35.72292 | -115.46671 | 36828 ft | 532 kts | 46° |
| 2026-04-26 08:33 | 35.78014 | -115.38764 | 36825 ft | 532 kts | 46° |
| 2026-04-26 08:34 | 35.82934 | -115.31949 | 36821 ft | 532 kts | 46° |
| 2026-04-26 08:34 | 35.87026 | -115.26272 | 36805 ft | 534 kts | 47° |
| 2026-04-26 08:35 | 35.92793 | -115.18252 | 36805 ft | 533 kts | 47° |
| 2026-04-26 08:35 | 35.96884 | -115.12552 | 36807 ft | 532 kts | 47° |
| 2026-04-26 08:36 | 36.01800 | -115.05690 | 36807 ft | 532 kts | 47° |
| 2026-04-26 08:36 | 36.06681 | -114.98864 | 36757 ft | 532 kts | 47° |
| 2026-04-26 08:37 | 36.11568 | -114.92013 | 36723 ft | 530 kts | 47° |
| 2026-04-26 08:37 | 36.16470 | -114.85173 | 36715 ft | 530 kts | 44° |
| 2026-04-26 08:38 | 36.19194 | -114.82137 | 36714 ft | 525 kts | 33° |
| 2026-04-26 08:38 | 36.22207 | -114.79602 | 36729 ft | 523 kts | 30° |
| 2026-04-26 08:38 | 36.28424 | -114.74922 | 36699 ft | 521 kts | 27° |
| 2026-04-26 08:39 | 36.34685 | -114.70400 | 36685 ft | 520 kts | 27° |
| 2026-04-26 08:39 | 36.40935 | -114.65834 | 36663 ft | 520 kts | 27° |
| 2026-04-26 08:40 | 36.47131 | -114.61248 | 36660 ft | 521 kts | 27° |
| 2026-04-26 08:40 | 36.53339 | -114.56625 | 36651 ft | 520 kts | 28° |
| 2026-04-26 08:41 | 36.59540 | -114.51996 | 36637 ft | 519 kts | 28° |
| 2026-04-26 08:41 | 36.65739 | -114.47363 | 36650 ft | 519 kts | 28° |
| 2026-04-26 08:42 | 36.71935 | -114.42725 | 36637 ft | 519 kts | 28° |
| 2026-04-26 08:42 | 36.78129 | -114.38080 | 36637 ft | 519 kts | 28° |
| 2026-04-26 08:43 | 36.84279 | -114.33460 | 36640 ft | 518 kts | 28° |
| 2026-04-26 08:43 | 36.90457 | -114.28808 | 36635 ft | 518 kts | 28° |
| 2026-04-26 08:44 | 36.96633 | -114.24149 | 36636 ft | 518 kts | 28° |
| 2026-04-26 08:44 | 37.02807 | -114.19483 | 36655 ft | 518 kts | 28° |
| 2026-04-26 08:45 | 37.08976 | -114.14811 | 36636 ft | 517 kts | 28° |
| 2026-04-26 08:45 | 37.15101 | -114.10165 | 36644 ft | 517 kts | 28° |
| 2026-04-26 08:46 | 37.21254 | -114.05488 | 36636 ft | 517 kts | 28° |
| 2026-04-26 08:46 | 37.27418 | -114.00795 | 36641 ft | 519 kts | 28° |
| 2026-04-26 08:47 | 37.33592 | -113.96083 | 36645 ft | 518 kts | 29° |
| 2026-04-26 08:47 | 37.39741 | -113.91380 | 36646 ft | 517 kts | 29° |
| 2026-04-26 08:48 | 37.45878 | -113.86679 | 36649 ft | 517 kts | 29° |
| 2026-04-26 08:48 | 37.52023 | -113.81964 | 36646 ft | 517 kts | 29° |
| 2026-04-26 08:49 | 37.58130 | -113.77267 | 36642 ft | 516 kts | 29° |
| 2026-04-26 08:49 | 37.64248 | -113.72552 | 36644 ft | 515 kts | 29° |
| 2026-04-26 08:50 | 37.70375 | -113.67822 | 36641 ft | 515 kts | 29° |
| 2026-04-26 08:50 | 37.76459 | -113.63116 | 36635 ft | 515 kts | 29° |
| 2026-04-26 08:51 | 37.85630 | -113.56005 | 36635 ft | 514 kts | 29° |
| 2026-04-26 08:52 | 37.91691 | -113.51293 | 36627 ft | 513 kts | 29° |
| 2026-04-26 08:52 | 37.97844 | -113.46703 | 36628 ft | 512 kts | 27° |
| 2026-04-26 08:53 | 38.04066 | -113.42304 | 36613 ft | 512 kts | 26° |
| 2026-04-26 08:53 | 38.10303 | -113.37904 | 36622 ft | 512 kts | 27° |
| 2026-04-26 08:54 | 38.16525 | -113.33474 | 36624 ft | 512 kts | 27° |
| 2026-04-26 08:54 | 38.22732 | -113.29029 | 36667 ft | 512 kts | 27° |
| 2026-04-26 08:55 | 38.28899 | -113.24599 | 36700 ft | 512 kts | 27° |
| 2026-04-26 08:55 | 38.35103 | -113.20135 | 36746 ft | 511 kts | 27° |
| 2026-04-26 08:56 | 38.41308 | -113.15662 | 36775 ft | 512 kts | 27° |
| 2026-04-26 08:56 | 38.47507 | -113.11185 | 36781 ft | 512 kts | 27° |
| 2026-04-26 08:57 | 38.53699 | -113.06703 | 36750 ft | 512 kts | 27° |
| 2026-04-26 08:57 | 38.59897 | -113.02210 | 36728 ft | 512 kts | 27° |
| 2026-04-26 08:58 | 38.66076 | -112.97720 | 36694 ft | 510 kts | 27° |
| 2026-04-26 08:58 | 38.72206 | -112.93257 | 36651 ft | 510 kts | 27° |
| 2026-04-26 08:59 | 38.78379 | -112.88754 | 36647 ft | 510 kts | 27° |
| 2026-04-26 08:59 | 38.84551 | -112.84243 | 36660 ft | 510 kts | 28° |
| 2026-04-26 09:00 | 38.90715 | -112.79728 | 36656 ft | 509 kts | 28° |
| 2026-04-26 09:00 | 38.96868 | -112.75211 | 36653 ft | 510 kts | 28° |
| 2026-04-26 09:01 | 39.03033 | -112.70678 | 36665 ft | 511 kts | 28° |
| 2026-04-26 09:01 | 39.09205 | -112.66130 | 36670 ft | 511 kts | 28° |
| 2026-04-26 09:02 | 39.15334 | -112.61604 | 36656 ft | 510 kts | 28° |
| 2026-04-26 09:02 | 39.21499 | -112.57043 | 36664 ft | 510 kts | 28° |
| 2026-04-26 09:03 | 39.27640 | -112.52454 | 36661 ft | 511 kts | 32° |
| 2026-04-26 09:03 | 39.33024 | -112.46468 | 36671 ft | 511 kts | 46° |
| 2026-04-26 09:04 | 39.37828 | -112.39753 | 36676 ft | 512 kts | 48° |
| 2026-04-26 09:04 | 39.42526 | -112.32880 | 36666 ft | 501 kts | 48° |
| 2026-04-26 09:05 | 39.47060 | -112.26228 | 36699 ft | 488 kts | 48° |
| 2026-04-26 09:05 | 39.51563 | -112.19650 | 36689 ft | 488 kts | 48° |
| 2026-04-26 09:06 | 39.56079 | -112.13064 | 36683 ft | 489 kts | 48° |
| 2026-04-26 09:06 | 39.60568 | -112.06507 | 36687 ft | 490 kts | 48° |
| 2026-04-26 09:07 | 39.65093 | -111.99883 | 36691 ft | 490 kts | 48° |
| 2026-04-26 09:07 | 39.69594 | -111.93278 | 36700 ft | 487 kts | 48° |
| 2026-04-26 09:08 | 39.74077 | -111.86685 | 36702 ft | 487 kts | 48° |
| 2026-04-26 09:08 | 39.78567 | -111.80069 | 36699 ft | 487 kts | 48° |
| 2026-04-26 09:09 | 39.83053 | -111.73443 | 36708 ft | 489 kts | 48° |
| 2026-04-26 09:09 | 39.87524 | -111.66824 | 36693 ft | 489 kts | 48° |
| 2026-04-26 09:10 | 39.92020 | -111.60154 | 36708 ft | 489 kts | 48° |
| 2026-04-26 09:10 | 39.96512 | -111.53478 | 36711 ft | 489 kts | 49° |
| 2026-04-26 09:11 | 40.01001 | -111.46790 | 36711 ft | 489 kts | 49° |
| 2026-04-26 09:11 | 40.05454 | -111.40143 | 36718 ft | 489 kts | 49° |
| 2026-04-26 09:12 | 40.09933 | -111.33442 | 36720 ft | 489 kts | 49° |
| 2026-04-26 09:12 | 40.14410 | -111.26729 | 36730 ft | 489 kts | 49° |
| 2026-04-26 09:13 | 40.18876 | -111.20017 | 36733 ft | 489 kts | 49° |
| 2026-04-26 09:13 | 40.23346 | -111.13286 | 36732 ft | 489 kts | 49° |
| 2026-04-26 09:14 | 40.27814 | -111.06541 | 36741 ft | 490 kts | 49° |
| 2026-04-26 09:14 | 40.32288 | -110.99775 | 36743 ft | 490 kts | 49° |
| 2026-04-26 09:15 | 40.36718 | -110.93059 | 36744 ft | 490 kts | 49° |
| 2026-04-26 09:15 | 40.41176 | -110.86286 | 36744 ft | 490 kts | 49° |
| 2026-04-26 09:16 | 40.45637 | -110.79494 | 36739 ft | 490 kts | 49° |
| 2026-04-26 09:16 | 40.50095 | -110.72690 | 36740 ft | 491 kts | 49° |
| 2026-04-26 09:17 | 40.54556 | -110.65867 | 36738 ft | 491 kts | 49° |
| 2026-04-26 09:17 | 40.58973 | -110.59096 | 36728 ft | 490 kts | 49° |
| 2026-04-26 09:18 | 40.63413 | -110.52275 | 36736 ft | 491 kts | 49° |
| 2026-04-26 09:18 | 40.67854 | -110.45437 | 36726 ft | 491 kts | 49° |
| 2026-04-26 09:19 | 40.72301 | -110.38574 | 36717 ft | 492 kts | 49° |
| 2026-04-26 09:19 | 40.76748 | -110.31698 | 36708 ft | 492 kts | 49° |
| 2026-04-26 09:20 | 40.81180 | -110.24827 | 36702 ft | 492 kts | 49° |
| 2026-04-26 09:20 | 40.84859 | -110.19112 | 36702 ft | 491 kts | 49° |
| 2026-04-26 09:21 | 40.89997 | -110.11110 | 36699 ft | 491 kts | 49° |
| 2026-04-26 09:21 | 40.93711 | -110.05315 | 36686 ft | 493 kts | 49° |
| 2026-04-26 09:22 | 40.98142 | -109.98388 | 36685 ft | 493 kts | 49° |
| 2026-04-26 09:22 | 41.02541 | -109.91494 | 36686 ft | 493 kts | 49° |
| 2026-04-26 09:23 | 41.06964 | -109.84546 | 36687 ft | 493 kts | 49° |
| 2026-04-26 09:23 | 41.11381 | -109.77591 | 36688 ft | 493 kts | 49° |
| 2026-04-26 09:24 | 41.15800 | -109.70618 | 36694 ft | 494 kts | 49° |
| 2026-04-26 09:24 | 41.20204 | -109.63653 | 36697 ft | 494 kts | 49° |
| 2026-04-26 09:25 | 41.24619 | -109.56655 | 36697 ft | 494 kts | 49° |
| 2026-04-26 09:25 | 41.29032 | -109.49643 | 36712 ft | 494 kts | 49° |
| 2026-04-26 09:26 | 41.33440 | -109.42622 | 36710 ft | 494 kts | 49° |
| 2026-04-26 09:26 | 41.37854 | -109.35576 | 36726 ft | 495 kts | 49° |
| 2026-04-26 09:27 | 41.42243 | -109.28554 | 36723 ft | 495 kts | 49° |
| 2026-04-26 09:27 | 41.46649 | -109.21488 | 36735 ft | 495 kts | 49° |
| 2026-04-26 09:28 | 41.51049 | -109.14414 | 36811 ft | 495 kts | 49° |
| 2026-04-26 09:28 | 41.55445 | -109.07329 | 36814 ft | 496 kts | 49° |
| 2026-04-26 09:29 | 41.60123 | -109.00597 | 36814 ft | 493 kts | 38° |
| 2026-04-26 09:29 | 41.65418 | -108.94736 | 36815 ft | 493 kts | 36° |
| 2026-04-26 09:30 | 41.70770 | -108.89094 | 36793 ft | 493 kts | 35° |
| 2026-04-26 09:30 | 41.76170 | -108.83432 | 36779 ft | 492 kts | 36° |
| 2026-04-26 09:31 | 41.81558 | -108.77745 | 36762 ft | 493 kts | 36° |
| 2026-04-26 09:31 | 41.86933 | -108.72037 | 36755 ft | 493 kts | 36° |
| 2026-04-26 09:32 | 41.92301 | -108.66320 | 36757 ft | 492 kts | 36° |
| 2026-04-26 09:32 | 41.97661 | -108.60600 | 36757 ft | 491 kts | 36° |
| 2026-04-26 09:33 | 42.02981 | -108.54911 | 36765 ft | 491 kts | 36° |
| 2026-04-26 09:33 | 42.08327 | -108.49180 | 36772 ft | 491 kts | 36° |
| 2026-04-26 09:34 | 42.13674 | -108.43437 | 36784 ft | 491 kts | 36° |
| 2026-04-26 09:34 | 42.18998 | -108.37706 | 36778 ft | 488 kts | 36° |
| 2026-04-26 09:35 | 42.24297 | -108.31987 | 36776 ft | 487 kts | 36° |
| 2026-04-26 09:35 | 42.29594 | -108.26260 | 36789 ft | 488 kts | 36° |
| 2026-04-26 09:36 | 42.34879 | -108.20534 | 36786 ft | 488 kts | 36° |
| 2026-04-26 09:36 | 42.40146 | -108.14812 | 36796 ft | 488 kts | 36° |
| 2026-04-26 09:37 | 42.45433 | -108.09057 | 36795 ft | 488 kts | 36° |
| 2026-04-26 09:37 | 42.50723 | -108.03286 | 36801 ft | 488 kts | 36° |
| 2026-04-26 09:38 | 42.56017 | -107.97498 | 36786 ft | 487 kts | 36° |
| 2026-04-26 09:38 | 42.61256 | -107.91756 | 36814 ft | 488 kts | 36° |
| 2026-04-26 09:39 | 42.66548 | -107.85945 | 36799 ft | 489 kts | 36° |
| 2026-04-26 09:39 | 42.71829 | -107.80132 | 36801 ft | 489 kts | 36° |
| 2026-04-26 09:40 | 42.77117 | -107.74296 | 36818 ft | 489 kts | 36° |
| 2026-04-26 09:40 | 42.82409 | -107.68444 | 36823 ft | 489 kts | 36° |
| 2026-04-26 09:41 | 42.87696 | -107.62585 | 36840 ft | 490 kts | 36° |
| 2026-04-26 09:41 | 42.92947 | -107.56752 | 36848 ft | 490 kts | 36° |
| 2026-04-26 09:42 | 42.98236 | -107.50863 | 36861 ft | 490 kts | 36° |
| 2026-04-26 09:42 | 43.03520 | -107.44966 | 36878 ft | 490 kts | 36° |
| 2026-04-26 09:43 | 43.08803 | -107.39057 | 36890 ft | 490 kts | 36° |
| 2026-04-26 09:43 | 43.14085 | -107.33136 | 36876 ft | 492 kts | 36° |
| 2026-04-26 09:44 | 43.19344 | -107.27228 | 36889 ft | 492 kts | 36° |
| 2026-04-26 09:44 | 43.24642 | -107.21260 | 36882 ft | 492 kts | 36° |
| 2026-04-26 09:45 | 43.29932 | -107.15287 | 36893 ft | 492 kts | 36° |
| 2026-04-26 09:45 | 43.35216 | -107.09309 | 36886 ft | 493 kts | 36° |
| 2026-04-26 09:46 | 43.40532 | -107.03280 | 36910 ft | 494 kts | 36° |
| 2026-04-26 09:46 | 43.45840 | -106.97246 | 36919 ft | 494 kts | 36° |
| 2026-04-26 09:47 | 43.51114 | -106.91235 | 36915 ft | 494 kts | 36° |
| 2026-04-26 09:47 | 43.56416 | -106.85180 | 36942 ft | 494 kts | 36° |
| 2026-04-26 09:48 | 43.61708 | -106.79120 | 36936 ft | 494 kts | 36° |
| 2026-04-26 09:48 | 43.67000 | -106.73047 | 36960 ft | 494 kts | 37° |
| 2026-04-26 09:49 | 43.72283 | -106.66970 | 36958 ft | 495 kts | 36° |
| 2026-04-26 09:49 | 43.77576 | -106.60866 | 36979 ft | 495 kts | 36° |
| 2026-04-26 09:50 | 43.82862 | -106.54757 | 36969 ft | 495 kts | 36° |
| 2026-04-26 09:50 | 43.88155 | -106.48625 | 36967 ft | 496 kts | 37° |
| 2026-04-26 09:51 | 43.93416 | -106.42515 | 36963 ft | 496 kts | 37° |
| 2026-04-26 09:51 | 43.98738 | -106.36319 | 36969 ft | 497 kts | 36° |
| 2026-04-26 09:52 | 44.04004 | -106.30174 | 36971 ft | 497 kts | 36° |
| 2026-04-26 09:52 | 44.11959 | -106.20863 | 36967 ft | 498 kts | 36° |
| 2026-04-26 09:53 | 44.17260 | -106.14638 | 36967 ft | 498 kts | 36° |
| 2026-04-26 09:53 | 44.22564 | -106.08397 | 36973 ft | 499 kts | 36° |
| 2026-04-26 09:54 | 44.27876 | -106.02130 | 36980 ft | 499 kts | 36° |
| 2026-04-26 09:54 | 44.33154 | -105.95887 | 36975 ft | 499 kts | 36° |
| 2026-04-26 09:55 | 44.38466 | -105.89589 | 36962 ft | 499 kts | 36° |
| 2026-04-26 09:55 | 44.43759 | -105.83298 | 36959 ft | 499 kts | 36° |
| 2026-04-26 09:56 | 44.49045 | -105.76999 | 36969 ft | 499 kts | 36° |
| 2026-04-26 09:56 | 44.54287 | -105.70738 | 36958 ft | 498 kts | 36° |
| 2026-04-26 09:57 | 44.59552 | -105.64434 | 36963 ft | 497 kts | 36° |
| 2026-04-26 09:57 | 44.64813 | -105.58120 | 36973 ft | 497 kts | 36° |
| 2026-04-26 09:58 | 44.70068 | -105.51796 | 36980 ft | 497 kts | 36° |
| 2026-04-26 09:58 | 44.75316 | -105.45466 | 36987 ft | 496 kts | 36° |
| 2026-04-26 09:59 | 44.79660 | -105.40213 | 36980 ft | 495 kts | 36° |
| 2026-04-26 09:59 | 44.85770 | -105.32809 | 36987 ft | 495 kts | 36° |
| 2026-04-26 10:00 | 44.90982 | -105.26474 | 36994 ft | 494 kts | 36° |
| 2026-04-26 10:00 | 44.96197 | -105.20122 | 37014 ft | 495 kts | 36° |
| 2026-04-26 10:01 | 45.01370 | -105.13804 | 36989 ft | 494 kts | 36° |
| 2026-04-26 10:01 | 45.06564 | -105.07444 | 37009 ft | 494 kts | 36° |
| 2026-04-26 10:02 | 45.11761 | -105.01065 | 37014 ft | 494 kts | 36° |
| 2026-04-26 10:02 | 45.16955 | -104.94673 | 36996 ft | 494 kts | 36° |
| 2026-04-26 10:03 | 45.22141 | -104.88276 | 37013 ft | 493 kts | 36° |
| 2026-04-26 10:03 | 45.27281 | -104.81919 | 37007 ft | 493 kts | 36° |
| 2026-04-26 10:04 | 45.32447 | -104.75514 | 37014 ft | 493 kts | 36° |
| 2026-04-26 10:04 | 45.37615 | -104.69091 | 37023 ft | 492 kts | 36° |
| 2026-04-26 10:05 | 45.42770 | -104.62668 | 37049 ft | 493 kts | 37° |
| 2026-04-26 10:05 | 45.47923 | -104.56231 | 37032 ft | 493 kts | 37° |
| 2026-04-26 10:06 | 45.53050 | -104.49811 | 37029 ft | 493 kts | 37° |
| 2026-04-26 10:06 | 45.58213 | -104.43329 | 37039 ft | 494 kts | 37° |
| 2026-04-26 10:07 | 45.62511 | -104.37920 | 37041 ft | 494 kts | 37° |
| 2026-04-26 10:07 | 45.67674 | -104.31407 | 37064 ft | 494 kts | 37° |
| 2026-04-26 10:08 | 45.72825 | -104.24892 | 37056 ft | 495 kts | 37° |
| 2026-04-26 10:08 | 45.77986 | -104.18348 | 37059 ft | 495 kts | 37° |
| 2026-04-26 10:09 | 45.83138 | -104.11798 | 37062 ft | 495 kts | 37° |
| 2026-04-26 10:09 | 45.88289 | -104.05233 | 37070 ft | 495 kts | 38° |
| 2026-04-26 10:10 | 45.93398 | -103.98706 | 37069 ft | 495 kts | 38° |
| 2026-04-26 10:10 | 45.98551 | -103.92105 | 37072 ft | 495 kts | 38° |
| 2026-04-26 10:11 | 46.03698 | -103.85494 | 37074 ft | 496 kts | 38° |
| 2026-04-26 10:11 | 46.08845 | -103.78865 | 37072 ft | 496 kts | 38° |
| 2026-04-26 10:12 | 46.13954 | -103.72268 | 37063 ft | 496 kts | 38° |
| 2026-04-26 10:12 | 46.19085 | -103.65626 | 37050 ft | 494 kts | 38° |
| 2026-04-26 10:13 | 46.24187 | -103.59004 | 37042 ft | 493 kts | 38° |
| 2026-04-26 10:13 | 46.29292 | -103.52361 | 37035 ft | 493 kts | 38° |
| 2026-04-26 10:14 | 46.34386 | -103.45717 | 37040 ft | 493 kts | 38° |
| 2026-04-26 10:14 | 46.39476 | -103.39058 | 37069 ft | 493 kts | 38° |
| 2026-04-26 10:15 | 46.44532 | -103.32428 | 37088 ft | 492 kts | 39° |
| 2026-04-26 10:15 | 46.49599 | -103.25764 | 37086 ft | 492 kts | 39° |
| 2026-04-26 10:16 | 46.54665 | -103.19085 | 37089 ft | 492 kts | 39° |
| 2026-04-26 10:16 | 46.59727 | -103.12394 | 37071 ft | 492 kts | 39° |
| 2026-04-26 10:17 | 46.64790 | -103.05684 | 37064 ft | 492 kts | 39° |
| 2026-04-26 10:17 | 46.69837 | -102.98976 | 37037 ft | 490 kts | 39° |
| 2026-04-26 10:18 | 46.74875 | -102.92264 | 37017 ft | 490 kts | 39° |
| 2026-04-26 10:18 | 46.79873 | -102.85587 | 37017 ft | 490 kts | 39° |
| 2026-04-26 10:19 | 46.84935 | -102.78905 | 37016 ft | 488 kts | 34° |
| 2026-04-26 10:19 | 46.90543 | -102.73427 | 37026 ft | 484 kts | 27° |
| 2026-04-26 10:20 | 46.96316 | -102.68352 | 37041 ft | 483 kts | 26° |
| 2026-04-26 10:20 | 47.02118 | -102.63354 | 37077 ft | 483 kts | 26° |
| 2026-04-26 10:21 | 47.07877 | -102.58370 | 37091 ft | 483 kts | 26° |
| 2026-04-26 10:21 | 47.13659 | -102.53331 | 37112 ft | 483 kts | 27° |
| 2026-04-26 10:22 | 47.19425 | -102.48281 | 37109 ft | 483 kts | 27° |
| 2026-04-26 10:22 | 47.25198 | -102.43212 | 37116 ft | 482 kts | 27° |
| 2026-04-26 10:23 | 47.30943 | -102.38154 | 37115 ft | 481 kts | 27° |
| 2026-04-26 10:23 | 47.36647 | -102.33120 | 37131 ft | 481 kts | 27° |
| 2026-04-26 10:24 | 47.42384 | -102.28044 | 37122 ft | 480 kts | 27° |
| 2026-04-26 10:24 | 47.48107 | -102.22968 | 37121 ft | 480 kts | 27° |
| 2026-04-26 10:25 | 47.53831 | -102.17879 | 37124 ft | 480 kts | 27° |
| 2026-04-26 10:25 | 47.59549 | -102.12782 | 37136 ft | 480 kts | 28° |
| 2026-04-26 10:26 | 47.65235 | -102.07699 | 37128 ft | 479 kts | 28° |
| 2026-04-26 10:26 | 47.70939 | -102.02588 | 37128 ft | 479 kts | 28° |
| 2026-04-26 10:27 | 47.76640 | -101.97466 | 37128 ft | 479 kts | 28° |
| 2026-04-26 10:27 | 47.82339 | -101.92333 | 37150 ft | 479 kts | 28° |
| 2026-04-26 10:28 | 47.88034 | -101.87190 | 37129 ft | 478 kts | 28° |
| 2026-04-26 10:28 | 47.93680 | -101.82077 | 37132 ft | 478 kts | 28° |
| 2026-04-26 10:29 | 47.99374 | -101.76909 | 37121 ft | 478 kts | 28° |
| 2026-04-26 10:29 | 48.05055 | -101.71738 | 37122 ft | 478 kts | 28° |
| 2026-04-26 10:30 | 48.10733 | -101.66556 | 37108 ft | 478 kts | 28° |
| 2026-04-26 10:30 | 48.16406 | -101.61366 | 37100 ft | 477 kts | 28° |
| 2026-04-26 10:31 | 48.22034 | -101.56203 | 37091 ft | 478 kts | 28° |
| 2026-04-26 10:31 | 48.27715 | -101.50978 | 37083 ft | 478 kts | 28° |
| 2026-04-26 10:32 | 48.33379 | -101.45755 | 37048 ft | 478 kts | 28° |
| 2026-04-26 10:32 | 48.39047 | -101.40514 | 37044 ft | 478 kts | 28° |
| 2026-04-26 10:33 | 48.44708 | -101.35266 | 37043 ft | 478 kts | 28° |
| 2026-04-26 10:33 | 48.50329 | -101.30041 | 37047 ft | 478 kts | 28° |
| 2026-04-26 10:34 | 48.53161 | -101.27404 | 37149 ft | 478 kts | 28° |
| 2026-04-26 10:34 | 48.55989 | -101.24766 | 37129 ft | 477 kts | 28° |
| 2026-04-26 10:34 | 48.61633 | -101.19491 | 37125 ft | 476 kts | 28° |
| 2026-04-26 10:35 | 48.67272 | -101.14208 | 37135 ft | 476 kts | 29° |
| 2026-04-26 10:35 | 48.72904 | -101.08917 | 37132 ft | 476 kts | 29° |
| 2026-04-26 10:36 | 48.78541 | -101.03608 | 37151 ft | 477 kts | 28° |
| 2026-04-26 10:36 | 48.84175 | -100.98286 | 37132 ft | 476 kts | 29° |
| 2026-04-26 10:37 | 48.89770 | -100.92988 | 37136 ft | 476 kts | 29° |
| 2026-04-26 10:37 | 48.95392 | -100.87649 | 37135 ft | 476 kts | 29° |
| 2026-04-26 10:38 | 49.00976 | -100.82332 | 37135 ft | 476 kts | 29° |
| 2026-04-26 10:38 | 49.06586 | -100.76976 | 37132 ft | 476 kts | 29° |
| 2026-04-26 10:39 | 49.12198 | -100.71601 | 37133 ft | 476 kts | 29° |
| 2026-04-26 10:39 | 49.17819 | -100.66205 | 37135 ft | 476 kts | 29° |
| 2026-04-26 10:40 | 49.23432 | -100.60801 | 37130 ft | 476 kts | 29° |
| 2026-04-26 10:40 | 49.29043 | -100.55384 | 37133 ft | 477 kts | 29° |
| 2026-04-26 10:41 | 49.34630 | -100.49977 | 37129 ft | 477 kts | 29° |
| 2026-04-26 10:41 | 49.40247 | -100.44525 | 37129 ft | 478 kts | 29° |
| 2026-04-26 10:42 | 49.45874 | -100.39048 | 37129 ft | 478 kts | 29° |
| 2026-04-26 10:42 | 49.51487 | -100.33570 | 37143 ft | 478 kts | 29° |
| 2026-04-26 10:43 | 49.57105 | -100.28072 | 37129 ft | 479 kts | 29° |
| 2026-04-26 10:43 | 49.62687 | -100.22594 | 37124 ft | 479 kts | 30° |
| 2026-04-26 10:44 | 49.68316 | -100.17055 | 37107 ft | 479 kts | 30° |
| 2026-04-26 10:44 | 49.73935 | -100.11510 | 37091 ft | 479 kts | 30° |
| 2026-04-26 10:45 | 49.79527 | -100.05976 | 37075 ft | 479 kts | 30° |
| 2026-04-26 10:45 | 49.85149 | -100.00398 | 37058 ft | 480 kts | 30° |
| 2026-04-26 10:46 | 49.90732 | -99.94718 | 37061 ft | 480 kts | 35° |
| 2026-04-26 10:46 | 49.96029 | -99.88353 | 37124 ft | 481 kts | 36° |
| 2026-04-26 10:47 | 50.01260 | -99.81855 | 37135 ft | 481 kts | 37° |
| 2026-04-26 10:47 | 50.06435 | -99.75363 | 37118 ft | 481 kts | 37° |
| 2026-04-26 10:48 | 50.11619 | -99.68851 | 37122 ft | 480 kts | 37° |
| 2026-04-26 10:48 | 50.16834 | -99.62295 | 37112 ft | 480 kts | 37° |
| 2026-04-26 10:49 | 50.22035 | -99.55740 | 37106 ft | 480 kts | 37° |
| 2026-04-26 10:49 | 50.27231 | -99.49174 | 37114 ft | 480 kts | 37° |
| 2026-04-26 10:50 | 50.31541 | -99.43711 | 37100 ft | 478 kts | 37° |
| 2026-04-26 10:50 | 50.37571 | -99.36048 | 37094 ft | 478 kts | 37° |
| 2026-04-26 10:51 | 50.45272 | -99.26223 | 37083 ft | 478 kts | 37° |
| 2026-04-26 10:52 | 50.50434 | -99.19613 | 37098 ft | 478 kts | 37° |
| 2026-04-26 10:52 | 50.55569 | -99.13019 | 37096 ft | 479 kts | 38° |
| 2026-04-26 10:53 | 50.60753 | -99.06343 | 37096 ft | 479 kts | 38° |
| 2026-04-26 10:53 | 50.65902 | -98.99692 | 37080 ft | 479 kts | 38° |
| 2026-04-26 10:54 | 50.73618 | -98.89689 | 37087 ft | 479 kts | 38° |
| 2026-04-26 10:54 | 50.78767 | -98.82989 | 37092 ft | 479 kts | 38° |
| 2026-04-26 10:55 | 50.83032 | -98.77423 | 37079 ft | 479 kts | 38° |
| 2026-04-26 10:55 | 50.88176 | -98.70694 | 37082 ft | 479 kts | 38° |
| 2026-04-26 10:56 | 50.93303 | -98.63967 | 37089 ft | 479 kts | 38° |
| 2026-04-26 10:56 | 50.98439 | -98.57209 | 37086 ft | 479 kts | 38° |
| 2026-04-26 10:57 | 51.03524 | -98.50497 | 37087 ft | 479 kts | 38° |
| 2026-04-26 10:57 | 51.08653 | -98.43708 | 37079 ft | 479 kts | 39° |
| 2026-04-26 10:58 | 51.13780 | -98.36899 | 37087 ft | 479 kts | 39° |
| 2026-04-26 10:58 | 51.18891 | -98.30092 | 37083 ft | 479 kts | 39° |
| 2026-04-26 10:59 | 51.24008 | -98.23256 | 37083 ft | 479 kts | 39° |
| 2026-04-26 10:59 | 51.29119 | -98.16409 | 37100 ft | 479 kts | 39° |
| 2026-04-26 11:00 | 51.34198 | -98.09585 | 37085 ft | 479 kts | 39° |
| 2026-04-26 11:00 | 51.39244 | -98.02783 | 37088 ft | 479 kts | 39° |
| 2026-04-26 11:01 | 51.44345 | -97.95887 | 37083 ft | 481 kts | 39° |
| 2026-04-26 11:01 | 51.49498 | -97.88900 | 37083 ft | 487 kts | 39° |
| 2026-04-26 11:02 | 51.54690 | -97.81838 | 37067 ft | 489 kts | 39° |
| 2026-04-26 11:02 | 51.59791 | -97.74877 | 37072 ft | 479 kts | 40° |
| 2026-04-26 11:03 | 51.64858 | -97.67942 | 37079 ft | 478 kts | 40° |
| 2026-04-26 11:03 | 51.69925 | -97.60987 | 37078 ft | 479 kts | 40° |
| 2026-04-26 11:04 | 51.74999 | -97.54000 | 37086 ft | 479 kts | 40° |
| 2026-04-26 11:04 | 51.80071 | -97.46995 | 37066 ft | 479 kts | 40° |
| 2026-04-26 11:05 | 51.85108 | -97.40017 | 37080 ft | 479 kts | 40° |
| 2026-04-26 11:05 | 51.90166 | -97.32989 | 37080 ft | 479 kts | 40° |
| 2026-04-26 11:06 | 51.95232 | -97.25927 | 37084 ft | 480 kts | 40° |
| 2026-04-26 11:06 | 52.00297 | -97.18844 | 37074 ft | 481 kts | 40° |
| 2026-04-26 11:07 | 52.05360 | -97.11743 | 37073 ft | 481 kts | 40° |
| 2026-04-26 11:07 | 52.10423 | -97.04620 | 37072 ft | 480 kts | 41° |
| 2026-04-26 11:08 | 52.15471 | -96.97496 | 37073 ft | 480 kts | 41° |
| 2026-04-26 11:08 | 52.20520 | -96.90348 | 37063 ft | 480 kts | 41° |
| 2026-04-26 11:09 | 52.25564 | -96.83183 | 37069 ft | 481 kts | 41° |
| 2026-04-26 11:09 | 52.30602 | -96.76007 | 37055 ft | 481 kts | 41° |
| 2026-04-26 11:10 | 52.35699 | -96.68899 | 37077 ft | 480 kts | 38° |
| 2026-04-26 11:10 | 52.40969 | -96.62302 | 37064 ft | 480 kts | 37° |
| 2026-04-26 11:11 | 52.46326 | -96.55767 | 37078 ft | 480 kts | 37° |
| 2026-04-26 11:11 | 52.51670 | -96.49172 | 37069 ft | 480 kts | 37° |
| 2026-04-26 11:12 | 52.56993 | -96.42524 | 37075 ft | 480 kts | 37° |
| 2026-04-26 11:12 | 52.62295 | -96.35861 | 37069 ft | 479 kts | 38° |
| 2026-04-26 11:13 | 52.67557 | -96.29227 | 37069 ft | 479 kts | 38° |
| 2026-04-26 11:13 | 52.72843 | -96.22544 | 37075 ft | 478 kts | 38° |
| 2026-04-26 11:14 | 52.78138 | -96.15830 | 37075 ft | 479 kts | 38° |
| 2026-04-26 11:14 | 52.83416 | -96.09118 | 37061 ft | 479 kts | 38° |
| 2026-04-26 11:15 | 52.88654 | -96.02436 | 37070 ft | 478 kts | 38° |
| 2026-04-26 11:15 | 52.93937 | -95.95674 | 37058 ft | 478 kts | 38° |
| 2026-04-26 11:16 | 52.99204 | -95.88912 | 37062 ft | 478 kts | 38° |
| 2026-04-26 11:16 | 53.04437 | -95.82172 | 37078 ft | 478 kts | 38° |
| 2026-04-26 11:17 | 53.09692 | -95.75382 | 37081 ft | 478 kts | 38° |
| 2026-04-26 11:17 | 53.14945 | -95.68573 | 37068 ft | 477 kts | 38° |
| 2026-04-26 11:18 | 53.20180 | -95.61765 | 37058 ft | 476 kts | 39° |
| 2026-04-26 11:18 | 53.25380 | -95.54982 | 37066 ft | 477 kts | 39° |
| 2026-04-26 11:19 | 53.30611 | -95.48137 | 37067 ft | 478 kts | 39° |
| 2026-04-26 11:19 | 53.35835 | -95.41279 | 37062 ft | 477 kts | 39° |
| 2026-04-26 11:20 | 53.40210 | -95.35518 | 37067 ft | 477 kts | 39° |
| 2026-04-26 11:20 | 53.46281 | -95.27499 | 37066 ft | 477 kts | 39° |
| 2026-04-26 11:21 | 53.51497 | -95.20585 | 37069 ft | 478 kts | 39° |
| 2026-04-26 11:21 | 53.56714 | -95.13648 | 37057 ft | 478 kts | 39° |
| 2026-04-26 11:22 | 53.61927 | -95.06692 | 37071 ft | 478 kts | 39° |
| 2026-04-26 11:22 | 53.67139 | -94.99718 | 37059 ft | 477 kts | 39° |
| 2026-04-26 11:23 | 53.72326 | -94.92752 | 37060 ft | 476 kts | 39° |
| 2026-04-26 11:23 | 53.77477 | -94.85812 | 37062 ft | 476 kts | 39° |
| 2026-04-26 11:24 | 53.82663 | -94.78803 | 37062 ft | 476 kts | 39° |
| 2026-04-26 11:24 | 53.87839 | -94.71785 | 37059 ft | 476 kts | 40° |
| 2026-04-26 11:25 | 53.93009 | -94.64751 | 37020 ft | 476 kts | 40° |
| 2026-04-26 11:25 | 53.98163 | -94.57718 | 37035 ft | 474 kts | 40° |
| 2026-04-26 11:26 | 54.03307 | -94.50674 | 37040 ft | 474 kts | 40° |
| 2026-04-26 11:26 | 54.08446 | -94.43613 | 37047 ft | 474 kts | 40° |
| 2026-04-26 11:27 | 54.13578 | -94.36539 | 37053 ft | 474 kts | 40° |
| 2026-04-26 11:27 | 54.18674 | -94.29492 | 37057 ft | 474 kts | 40° |
| 2026-04-26 11:28 | 54.23787 | -94.22399 | 37044 ft | 473 kts | 40° |
| 2026-04-26 11:28 | 54.28890 | -94.15294 | 37051 ft | 473 kts | 41° |
| 2026-04-26 11:29 | 54.33998 | -94.08161 | 37053 ft | 473 kts | 41° |
| 2026-04-26 11:29 | 54.39104 | -94.01007 | 37050 ft | 473 kts | 41° |
| 2026-04-26 11:30 | 54.43340 | -93.95053 | 37050 ft | 473 kts | 41° |
| 2026-04-26 11:30 | 54.49258 | -93.86708 | 37046 ft | 472 kts | 41° |
| 2026-04-26 11:31 | 54.54334 | -93.79524 | 37051 ft | 472 kts | 41° |
| 2026-04-26 11:31 | 54.59402 | -93.72328 | 37039 ft | 472 kts | 41° |
| 2026-04-26 11:32 | 54.64471 | -93.65107 | 37045 ft | 472 kts | 41° |
| 2026-04-26 11:32 | 54.69533 | -93.57870 | 37045 ft | 472 kts | 41° |
| 2026-04-26 11:33 | 54.74586 | -93.50623 | 37041 ft | 471 kts | 41° |
| 2026-04-26 11:33 | 54.79627 | -93.43369 | 37045 ft | 471 kts | 41° |
| 2026-04-26 11:34 | 54.84639 | -93.36132 | 37042 ft | 471 kts | 42° |
| 2026-04-26 11:34 | 54.89660 | -93.28858 | 37042 ft | 471 kts | 42° |
| 2026-04-26 11:35 | 54.94689 | -93.21548 | 37042 ft | 471 kts | 42° |
| 2026-04-26 11:35 | 54.98867 | -93.15456 | 37043 ft | 470 kts | 42° |
| 2026-04-26 11:36 | 55.04724 | -93.06888 | 37037 ft | 470 kts | 42° |
| 2026-04-26 11:36 | 55.09728 | -92.99540 | 37042 ft | 470 kts | 42° |
| 2026-04-26 11:37 | 55.14723 | -92.92180 | 37039 ft | 470 kts | 42° |
| 2026-04-26 11:37 | 55.19690 | -92.84837 | 37042 ft | 470 kts | 42° |
| 2026-04-26 11:38 | 55.24679 | -92.77436 | 37038 ft | 470 kts | 43° |
| 2026-04-26 11:38 | 55.29662 | -92.70019 | 37039 ft | 469 kts | 43° |
| 2026-04-26 11:39 | 55.34637 | -92.62589 | 37048 ft | 469 kts | 43° |
| 2026-04-26 11:39 | 55.39617 | -92.55126 | 37048 ft | 469 kts | 43° |
| 2026-04-26 11:40 | 55.44550 | -92.47706 | 37045 ft | 469 kts | 43° |
| 2026-04-26 11:40 | 55.49517 | -92.40212 | 37052 ft | 469 kts | 43° |
| 2026-04-26 11:42 | 55.68486 | -92.11347 | 37058 ft | 470 kts | 44° |
| 2026-04-26 11:43 | 55.73423 | -92.03772 | 37060 ft | 470 kts | 44° |
| 2026-04-26 11:43 | 55.78362 | -91.96169 | 37063 ft | 469 kts | 44° |
| 2026-04-26 11:44 | 55.83262 | -91.88597 | 37060 ft | 469 kts | 44° |
| 2026-04-26 11:44 | 55.88187 | -91.80961 | 37067 ft | 469 kts | 44° |
| 2026-04-26 11:45 | 55.93101 | -91.73317 | 37067 ft | 469 kts | 44° |
| 2026-04-26 11:45 | 55.98013 | -91.65646 | 37061 ft | 469 kts | 44° |
| 2026-04-26 11:46 | 56.02926 | -91.57948 | 37073 ft | 470 kts | 44° |
| 2026-04-26 11:46 | 56.07838 | -91.50224 | 37073 ft | 470 kts | 44° |
| 2026-04-26 11:47 | 56.12716 | -91.42527 | 37077 ft | 470 kts | 44° |
| 2026-04-26 11:47 | 56.17645 | -91.34723 | 37081 ft | 470 kts | 44° |
| 2026-04-26 11:48 | 56.22504 | -91.27001 | 37080 ft | 470 kts | 44° |
| 2026-04-26 11:48 | 56.27399 | -91.19195 | 37082 ft | 470 kts | 44° |
| 2026-04-26 11:49 | 56.32282 | -91.11380 | 37091 ft | 469 kts | 45° |
| 2026-04-26 11:49 | 56.37147 | -91.03565 | 37072 ft | 468 kts | 45° |
| 2026-04-26 11:50 | 56.42016 | -90.95717 | 37074 ft | 468 kts | 45° |
| 2026-04-26 11:50 | 56.46840 | -90.87913 | 37091 ft | 468 kts | 45° |
| 2026-04-26 11:51 | 56.51691 | -90.80037 | 37096 ft | 468 kts | 45° |
| 2026-04-26 11:51 | 56.56536 | -90.72143 | 37098 ft | 468 kts | 45° |
| 2026-04-26 11:52 | 56.61383 | -90.64217 | 37102 ft | 467 kts | 45° |
| 2026-04-26 11:52 | 56.66213 | -90.56292 | 37082 ft | 467 kts | 45° |
| 2026-04-26 11:53 | 56.71041 | -90.48340 | 37104 ft | 467 kts | 45° |
| 2026-04-26 11:54 | 56.78237 | -90.36434 | 37110 ft | 467 kts | 45° |
| 2026-04-26 11:54 | 56.83055 | -90.28427 | 37111 ft | 467 kts | 45° |
| 2026-04-26 11:55 | 56.87851 | -90.20427 | 37118 ft | 467 kts | 45° |
| 2026-04-26 11:55 | 56.92616 | -90.12451 | 37119 ft | 466 kts | 45° |
| 2026-04-26 11:56 | 56.97389 | -90.04432 | 37117 ft | 466 kts | 45° |
| 2026-04-26 11:56 | 57.02231 | -89.96492 | 37105 ft | 467 kts | 43° |
| 2026-04-26 11:57 | 57.07237 | -89.88883 | 37124 ft | 466 kts | 42° |
| 2026-04-26 11:57 | 57.12261 | -89.81336 | 37117 ft | 466 kts | 43° |
| 2026-04-26 11:58 | 57.17260 | -89.73746 | 37119 ft | 465 kts | 43° |
| 2026-04-26 11:58 | 57.22201 | -89.66173 | 37118 ft | 464 kts | 43° |
| 2026-04-26 11:59 | 57.27167 | -89.58519 | 37123 ft | 464 kts | 43° |
| 2026-04-26 11:59 | 57.32129 | -89.50842 | 37123 ft | 464 kts | 43° |
| 2026-04-26 12:00 | 57.37084 | -89.43151 | 37125 ft | 464 kts | 43° |
| 2026-04-26 12:00 | 57.42029 | -89.35450 | 37139 ft | 463 kts | 44° |
| 2026-04-26 12:01 | 57.46953 | -89.27755 | 37127 ft | 463 kts | 44° |
| 2026-04-26 12:01 | 57.51843 | -89.20083 | 37128 ft | 463 kts | 44° |
| 2026-04-26 12:02 | 57.56768 | -89.12327 | 37128 ft | 463 kts | 44° |
| 2026-04-26 12:02 | 57.61673 | -89.04575 | 37131 ft | 463 kts | 44° |
| 2026-04-26 12:03 | 57.66583 | -88.96788 | 37127 ft | 463 kts | 44° |
| 2026-04-26 12:03 | 57.71490 | -88.88976 | 37145 ft | 462 kts | 44° |
| 2026-04-26 12:04 | 57.76344 | -88.81220 | 37146 ft | 461 kts | 44° |
| 2026-04-26 12:04 | 57.81222 | -88.73396 | 37140 ft | 461 kts | 44° |
| 2026-04-26 12:05 | 57.86098 | -88.65546 | 37142 ft | 461 kts | 45° |
| 2026-04-26 12:05 | 57.90964 | -88.57685 | 37141 ft | 461 kts | 45° |
| 2026-04-26 12:06 | 57.95826 | -88.49800 | 37149 ft | 461 kts | 45° |
| 2026-04-26 12:06 | 58.00670 | -88.41916 | 37149 ft | 460 kts | 45° |
| 2026-04-26 12:07 | 58.05487 | -88.34045 | 37154 ft | 460 kts | 45° |
| 2026-04-26 12:07 | 58.10328 | -88.26107 | 37154 ft | 460 kts | 45° |
| 2026-04-26 12:08 | 58.15167 | -88.18142 | 37160 ft | 460 kts | 45° |
| 2026-04-26 12:08 | 58.20000 | -88.10157 | 37158 ft | 460 kts | 45° |
| 2026-04-26 12:09 | 58.24798 | -88.02201 | 37165 ft | 460 kts | 45° |
| 2026-04-26 12:09 | 58.29617 | -87.94180 | 37165 ft | 461 kts | 45° |
| 2026-04-26 12:10 | 58.34430 | -87.86137 | 37166 ft | 460 kts | 45° |
| 2026-04-26 12:10 | 58.39239 | -87.78072 | 37167 ft | 460 kts | 45° |
| 2026-04-26 12:11 | 58.44044 | -87.69983 | 37171 ft | 460 kts | 45° |
| 2026-04-26 12:11 | 58.48849 | -87.61863 | 37178 ft | 460 kts | 45° |
| 2026-04-26 12:12 | 58.53641 | -87.53732 | 37179 ft | 460 kts | 45° |
| 2026-04-26 12:12 | 58.58421 | -87.45592 | 37185 ft | 461 kts | 46° |
| 2026-04-26 12:13 | 58.63217 | -87.37394 | 37187 ft | 461 kts | 46° |
| 2026-04-26 12:13 | 58.68000 | -87.29186 | 37192 ft | 461 kts | 46° |
| 2026-04-26 12:14 | 58.72751 | -87.21005 | 37195 ft | 461 kts | 46° |
| 2026-04-26 12:14 | 58.77527 | -87.12746 | 37195 ft | 461 kts | 46° |
| 2026-04-26 12:15 | 58.82300 | -87.04461 | 37203 ft | 461 kts | 46° |
| 2026-04-26 12:15 | 58.87040 | -86.96200 | 37208 ft | 461 kts | 46° |
| 2026-04-26 12:16 | 58.91790 | -86.87893 | 37210 ft | 461 kts | 46° |
| 2026-04-26 12:16 | 58.96549 | -86.79535 | 37209 ft | 461 kts | 46° |
| 2026-04-26 12:17 | 59.01299 | -86.71160 | 37216 ft | 461 kts | 47° |
| 2026-04-26 12:17 | 59.06051 | -86.62751 | 37216 ft | 462 kts | 47° |
| 2026-04-26 12:18 | 59.10776 | -86.54356 | 37224 ft | 462 kts | 47° |
| 2026-04-26 12:18 | 59.15508 | -86.45915 | 37227 ft | 462 kts | 47° |
| 2026-04-26 12:19 | 59.20249 | -86.37426 | 37227 ft | 461 kts | 47° |
| 2026-04-26 12:19 | 59.24979 | -86.28923 | 37239 ft | 462 kts | 47° |
| 2026-04-26 12:20 | 59.29665 | -86.20465 | 37235 ft | 462 kts | 47° |
| 2026-04-26 12:20 | 59.34384 | -86.11915 | 37216 ft | 462 kts | 48° |
| 2026-04-26 12:21 | 59.39106 | -86.03323 | 37248 ft | 462 kts | 48° |
| 2026-04-26 12:21 | 59.43782 | -85.94782 | 37255 ft | 462 kts | 48° |
| 2026-04-26 12:22 | 59.48491 | -85.86147 | 37252 ft | 462 kts | 48° |
| 2026-04-26 12:22 | 59.53197 | -85.77484 | 37256 ft | 462 kts | 48° |
| 2026-04-26 12:23 | 59.57887 | -85.68814 | 37266 ft | 462 kts | 48° |
| 2026-04-26 12:23 | 59.62550 | -85.60160 | 37264 ft | 462 kts | 48° |
| 2026-04-26 12:24 | 59.67234 | -85.51432 | 37269 ft | 462 kts | 48° |
| 2026-04-26 12:24 | 59.71912 | -85.42681 | 37272 ft | 462 kts | 49° |
| 2026-04-26 12:25 | 59.78919 | -85.29503 | 37281 ft | 463 kts | 49° |
| 2026-04-26 12:25 | 59.83590 | -85.20676 | 37288 ft | 463 kts | 49° |
| 2026-04-26 12:26 | 59.88260 | -85.11812 | 37289 ft | 464 kts | 49° |
| 2026-04-26 12:26 | 59.92896 | -85.02979 | 37291 ft | 464 kts | 49° |
| 2026-04-26 12:27 | 59.97559 | -84.94059 | 37298 ft | 464 kts | 49° |
| 2026-04-26 12:27 | 60.02211 | -84.85123 | 37296 ft | 464 kts | 49° |
| 2026-04-26 12:28 | 60.06858 | -84.76159 | 37297 ft | 464 kts | 49° |
| 2026-04-26 12:28 | 60.10717 | -84.68685 | 37308 ft | 464 kts | 49° |
| 2026-04-26 12:29 | 60.15364 | -84.59653 | 37301 ft | 465 kts | 49° |
| 2026-04-26 12:30 | 60.22328 | -84.46047 | 37327 ft | 465 kts | 49° |
| 2026-04-26 12:30 | 60.26964 | -84.36944 | 37312 ft | 465 kts | 49° |
| 2026-04-26 12:31 | 60.33872 | -84.23304 | 37307 ft | 465 kts | 49° |
| 2026-04-26 12:31 | 60.38491 | -84.14138 | 37328 ft | 466 kts | 49° |
| 2026-04-26 12:32 | 60.43108 | -84.04936 | 37336 ft | 466 kts | 49° |
| 2026-04-26 12:33 | 60.50027 | -83.91074 | 37315 ft | 466 kts | 50° |
| 2026-04-26 12:33 | 60.54627 | -83.81809 | 37342 ft | 466 kts | 50° |
| 2026-04-26 12:34 | 60.59225 | -83.72509 | 37346 ft | 466 kts | 50° |
| 2026-04-26 12:34 | 60.63819 | -83.63174 | 37356 ft | 467 kts | 49° |
| 2026-04-26 12:35 | 60.68411 | -83.53808 | 37354 ft | 467 kts | 50° |
| 2026-04-26 12:35 | 60.73006 | -83.44394 | 37364 ft | 467 kts | 50° |
| 2026-04-26 12:36 | 60.77565 | -83.35013 | 37369 ft | 468 kts | 50° |
| 2026-04-26 12:36 | 60.82180 | -83.25470 | 37377 ft | 474 kts | 50° |
| 2026-04-26 12:37 | 60.86851 | -83.15771 | 37374 ft | 480 kts | 50° |
| 2026-04-26 12:37 | 60.91557 | -83.05962 | 37376 ft | 485 kts | 49° |
| 2026-04-26 12:38 | 60.96317 | -82.95994 | 37382 ft | 491 kts | 49° |
| 2026-04-26 12:38 | 61.01126 | -82.85878 | 37384 ft | 497 kts | 49° |
| 2026-04-26 12:39 | 61.05946 | -82.75691 | 37394 ft | 502 kts | 49° |
| 2026-04-26 12:39 | 61.10842 | -82.65296 | 37392 ft | 508 kts | 50° |
| 2026-04-26 12:40 | 61.15799 | -82.54721 | 37402 ft | 513 kts | 49° |
| 2026-04-26 12:40 | 61.20777 | -82.44055 | 37403 ft | 513 kts | 49° |
| 2026-04-26 12:41 | 61.25727 | -82.33397 | 37416 ft | 513 kts | 49° |
| 2026-04-26 12:41 | 61.30644 | -82.22754 | 37414 ft | 513 kts | 50° |
| 2026-04-26 12:42 | 61.35583 | -82.12011 | 37420 ft | 513 kts | 50° |
| 2026-04-26 12:42 | 61.40510 | -82.01241 | 37422 ft | 513 kts | 50° |
| 2026-04-26 12:43 | 61.45424 | -81.90446 | 37435 ft | 513 kts | 50° |
| 2026-04-26 12:43 | 61.50342 | -81.79590 | 37433 ft | 513 kts | 50° |
| 2026-04-26 12:44 | 61.55247 | -81.68710 | 37434 ft | 513 kts | 50° |
| 2026-04-26 12:44 | 61.60109 | -81.57871 | 37432 ft | 513 kts | 50° |
| 2026-04-26 12:45 | 61.64988 | -81.46941 | 37413 ft | 513 kts | 50° |
| 2026-04-26 12:45 | 61.69869 | -81.35953 | 37446 ft | 515 kts | 49° |
| 2026-04-26 12:46 | 61.74765 | -81.24874 | 37449 ft | 516 kts | 50° |
| 2026-04-26 12:46 | 61.79655 | -81.13757 | 37455 ft | 516 kts | 50° |
| 2026-04-26 12:47 | 61.84526 | -81.02624 | 37455 ft | 516 kts | 50° |
| 2026-04-26 12:47 | 61.89400 | -80.91430 | 37465 ft | 516 kts | 50° |
| 2026-04-26 12:48 | 61.94225 | -80.80293 | 37468 ft | 516 kts | 50° |
| 2026-04-26 12:48 | 61.99081 | -80.69026 | 37476 ft | 518 kts | 50° |
| 2026-04-26 12:49 | 62.03942 | -80.57691 | 37468 ft | 518 kts | 49° |
| 2026-04-26 12:49 | 62.08791 | -80.46323 | 37484 ft | 518 kts | 50° |
| 2026-04-26 12:50 | 62.13638 | -80.34905 | 37481 ft | 518 kts | 50° |
| 2026-04-26 12:50 | 62.18470 | -80.23462 | 37505 ft | 518 kts | 49° |
| 2026-04-26 12:51 | 62.23308 | -80.11948 | 37491 ft | 520 kts | 49° |
| 2026-04-26 12:51 | 62.28085 | -80.00277 | 37488 ft | 519 kts | 55° |
| 2026-04-26 12:52 | 62.32316 | -79.87836 | 37501 ft | 518 kts | 58° |
| 2026-04-26 12:52 | 62.36217 | -79.74765 | 37500 ft | 518 kts | 60° |
| 2026-04-26 12:53 | 62.39988 | -79.61518 | 37513 ft | 519 kts | 60° |
| 2026-04-26 12:53 | 62.43737 | -79.48185 | 37521 ft | 519 kts | 60° |
| 2026-04-26 12:54 | 62.47488 | -79.34814 | 37510 ft | 522 kts | 60° |
| 2026-04-26 12:54 | 62.51265 | -79.21488 | 37519 ft | 523 kts | 59° |
| 2026-04-26 12:55 | 62.55210 | -79.08210 | 37519 ft | 523 kts | 58° |
| 2026-04-26 12:55 | 62.59304 | -78.95158 | 37528 ft | 523 kts | 55° |
| 2026-04-26 12:56 | 62.63547 | -78.82330 | 37524 ft | 523 kts | 54° |
| 2026-04-26 12:56 | 62.67803 | -78.69434 | 37554 ft | 523 kts | 54° |
| 2026-04-26 12:57 | 62.72019 | -78.56486 | 37534 ft | 525 kts | 54° |
| 2026-04-26 12:57 | 62.76202 | -78.43509 | 37535 ft | 526 kts | 55° |
| 2026-04-26 12:58 | 62.82501 | -78.23809 | 37549 ft | 526 kts | 55° |
| 2026-04-26 12:58 | 62.86665 | -78.10696 | 37549 ft | 526 kts | 55° |
| 2026-04-26 12:59 | 62.90826 | -77.97518 | 37559 ft | 526 kts | 55° |
| 2026-04-26 12:59 | 62.94986 | -77.84270 | 37563 ft | 527 kts | 54° |
| 2026-04-26 13:00 | 62.99120 | -77.71026 | 37578 ft | 528 kts | 54° |
| 2026-04-26 13:00 | 63.03268 | -77.57659 | 37578 ft | 528 kts | 54° |
| 2026-04-26 13:01 | 63.07403 | -77.44255 | 37586 ft | 528 kts | 54° |
| 2026-04-26 13:01 | 63.11527 | -77.30810 | 37586 ft | 528 kts | 55° |
| 2026-04-26 13:02 | 63.15632 | -77.17343 | 37586 ft | 528 kts | 55° |
| 2026-04-26 13:02 | 63.19705 | -77.03904 | 37593 ft | 530 kts | 54° |
| 2026-04-26 13:03 | 63.23806 | -76.90295 | 37593 ft | 531 kts | 54° |
| 2026-04-26 13:03 | 63.27894 | -76.76642 | 37600 ft | 531 kts | 54° |
| 2026-04-26 13:04 | 63.31974 | -76.62935 | 37599 ft | 531 kts | 54° |
| 2026-04-26 13:04 | 63.36040 | -76.49187 | 37607 ft | 531 kts | 54° |
| 2026-04-26 13:05 | 63.40062 | -76.35512 | 37645 ft | 531 kts | 54° |
| 2026-04-26 13:05 | 63.44105 | -76.21680 | 37603 ft | 532 kts | 54° |
| 2026-04-26 13:06 | 63.48150 | -76.07754 | 37616 ft | 533 kts | 54° |
| 2026-04-26 13:06 | 63.52182 | -75.93786 | 37595 ft | 533 kts | 54° |
| 2026-04-26 13:07 | 63.56196 | -75.79794 | 37610 ft | 533 kts | 54° |
| 2026-04-26 13:07 | 63.60192 | -75.65780 | 37614 ft | 533 kts | 54° |
| 2026-04-26 13:08 | 63.64179 | -75.51709 | 37634 ft | 534 kts | 54° |
| 2026-04-26 13:08 | 63.68151 | -75.37602 | 37608 ft | 535 kts | 54° |
| 2026-04-26 13:09 | 63.72105 | -75.23474 | 37605 ft | 535 kts | 54° |
| 2026-04-26 13:09 | 63.76075 | -75.09195 | 37617 ft | 535 kts | 54° |
| 2026-04-26 13:10 | 63.80024 | -74.94901 | 37610 ft | 535 kts | 54° |
| 2026-04-26 13:10 | 63.83951 | -74.80595 | 37610 ft | 535 kts | 54° |
| 2026-04-26 13:11 | 63.87874 | -74.66215 | 37607 ft | 535 kts | 54° |
| 2026-04-26 13:11 | 63.91749 | -74.51917 | 37614 ft | 535 kts | 54° |
| 2026-04-26 13:12 | 63.95647 | -74.37439 | 37607 ft | 535 kts | 54° |
| 2026-04-26 13:12 | 63.99523 | -74.22953 | 37609 ft | 535 kts | 54° |
| 2026-04-26 13:13 | 64.03382 | -74.08435 | 37609 ft | 536 kts | 54° |
| 2026-04-26 13:13 | 64.07226 | -73.93876 | 37602 ft | 536 kts | 54° |
| 2026-04-26 13:14 | 64.11066 | -73.79236 | 37602 ft | 536 kts | 54° |
| 2026-04-26 13:14 | 64.14870 | -73.64643 | 37605 ft | 536 kts | 54° |
| 2026-04-26 13:15 | 64.18682 | -73.49921 | 37614 ft | 536 kts | 54° |
| 2026-04-26 13:15 | 64.21861 | -73.37569 | 37614 ft | 536 kts | 54° |
| 2026-04-26 13:16 | 64.25618 | -73.22878 | 37603 ft | 536 kts | 54° |
| 2026-04-26 13:16 | 64.29390 | -73.08031 | 37611 ft | 536 kts | 55° |
| 2026-04-26 13:17 | 64.35013 | -72.85708 | 37599 ft | 537 kts | 54° |
| 2026-04-26 13:18 | 64.40614 | -72.63251 | 37610 ft | 538 kts | 55° |
| 2026-04-26 13:19 | 64.46183 | -72.40691 | 37616 ft | 538 kts | 55° |
| 2026-04-26 13:19 | 64.49853 | -72.25696 | 37617 ft | 538 kts | 55° |
| 2026-04-26 13:20 | 64.53539 | -72.10531 | 37685 ft | 538 kts | 55° |
| 2026-04-26 13:20 | 64.57207 | -71.95336 | 37624 ft | 540 kts | 55° |
| 2026-04-26 13:21 | 64.60874 | -71.80040 | 37626 ft | 541 kts | 55° |
| 2026-04-26 13:21 | 64.64525 | -71.64701 | 37629 ft | 541 kts | 55° |
| 2026-04-26 13:22 | 64.68164 | -71.49301 | 37627 ft | 541 kts | 55° |
| 2026-04-26 13:22 | 64.71761 | -71.33972 | 37626 ft | 541 kts | 56° |
| 2026-04-26 13:23 | 64.75369 | -71.18489 | 37633 ft | 541 kts | 55° |
| 2026-04-26 13:23 | 64.78966 | -71.02945 | 37622 ft | 543 kts | 56° |
| 2026-04-26 13:24 | 64.82556 | -70.87313 | 37623 ft | 543 kts | 55° |
| 2026-04-26 13:24 | 64.86123 | -70.71669 | 37620 ft | 542 kts | 55° |
| 2026-04-26 13:25 | 64.89648 | -70.56093 | 37619 ft | 543 kts | 56° |
| 2026-04-26 13:25 | 64.93185 | -70.40355 | 37620 ft | 543 kts | 56° |
| 2026-04-26 13:26 | 64.96704 | -70.24585 | 37630 ft | 543 kts | 55° |
| 2026-04-26 13:26 | 65.00204 | -70.08784 | 37616 ft | 544 kts | 56° |
| 2026-04-26 13:27 | 65.03690 | -69.92923 | 37611 ft | 544 kts | 56° |
| 2026-04-26 13:27 | 65.07159 | -69.77022 | 37601 ft | 543 kts | 56° |
| 2026-04-26 13:28 | 65.10605 | -69.61105 | 37600 ft | 543 kts | 56° |
| 2026-04-26 13:28 | 65.14051 | -69.45073 | 37597 ft | 543 kts | 56° |
| 2026-04-26 13:29 | 65.17466 | -69.29062 | 37601 ft | 543 kts | 56° |
| 2026-04-26 13:29 | 65.20868 | -69.12990 | 37591 ft | 542 kts | 56° |
| 2026-04-26 13:30 | 65.24247 | -68.96912 | 37591 ft | 542 kts | 56° |
| 2026-04-26 13:30 | 65.27593 | -68.80866 | 37583 ft | 543 kts | 56° |
| 2026-04-26 13:31 | 65.30956 | -68.64608 | 37585 ft | 542 kts | 56° |
| 2026-04-26 13:31 | 65.34259 | -68.48517 | 37572 ft | 542 kts | 56° |
| 2026-04-26 13:32 | 65.37578 | -68.32224 | 37560 ft | 540 kts | 56° |
| 2026-04-26 13:32 | 65.40835 | -68.16105 | 37564 ft | 539 kts | 56° |
| 2026-04-26 13:33 | 65.44094 | -67.99859 | 37542 ft | 539 kts | 56° |
| 2026-04-26 13:33 | 65.47330 | -67.83605 | 37542 ft | 539 kts | 56° |
| 2026-04-26 13:34 | 65.50556 | -67.67271 | 37542 ft | 540 kts | 56° |
| 2026-04-26 13:34 | 65.53761 | -67.50902 | 37517 ft | 539 kts | 56° |
| 2026-04-26 13:35 | 65.56948 | -67.34499 | 37505 ft | 538 kts | 57° |
| 2026-04-26 13:35 | 65.60087 | -67.18211 | 37500 ft | 537 kts | 57° |
| 2026-04-26 13:36 | 65.63217 | -67.01847 | 37514 ft | 537 kts | 57° |
| 2026-04-26 13:36 | 65.66407 | -66.85514 | 37488 ft | 535 kts | 56° |
| 2026-04-26 13:37 | 65.69680 | -66.69273 | 37503 ft | 535 kts | 56° |
| 2026-04-26 13:37 | 65.72930 | -66.52998 | 37503 ft | 536 kts | 56° |
| 2026-04-26 13:38 | 65.76142 | -66.36662 | 37488 ft | 536 kts | 56° |
| 2026-04-26 13:38 | 65.79336 | -66.20228 | 37485 ft | 536 kts | 56° |
| 2026-04-26 13:39 | 65.82516 | -66.03726 | 37477 ft | 537 kts | 57° |
| 2026-04-26 13:39 | 65.85657 | -65.87302 | 37479 ft | 537 kts | 57° |
| 2026-04-26 13:40 | 65.88795 | -65.70762 | 37470 ft | 537 kts | 57° |
| 2026-04-26 13:40 | 65.91923 | -65.54146 | 37471 ft | 537 kts | 57° |
| 2026-04-26 13:41 | 65.95029 | -65.37505 | 37473 ft | 537 kts | 57° |
| 2026-04-26 13:41 | 65.98125 | -65.20784 | 37470 ft | 538 kts | 57° |
| 2026-04-26 13:42 | 66.01195 | -65.04063 | 37467 ft | 537 kts | 57° |
| 2026-04-26 13:42 | 66.04255 | -64.87255 | 37468 ft | 538 kts | 58° |
| 2026-04-26 13:43 | 66.07274 | -64.70541 | 37471 ft | 538 kts | 58° |
| 2026-04-26 13:43 | 66.10302 | -64.53629 | 37544 ft | 538 kts | 58° |
| 2026-04-26 13:44 | 66.13298 | -64.36747 | 37464 ft | 536 kts | 58° |
| 2026-04-26 13:44 | 66.16273 | -64.19843 | 37466 ft | 536 kts | 58° |
| 2026-04-26 13:45 | 66.19229 | -64.02903 | 37474 ft | 536 kts | 58° |
| 2026-04-26 13:45 | 66.22149 | -63.86037 | 37477 ft | 537 kts | 58° |
| 2026-04-26 13:46 | 66.25077 | -63.68982 | 37467 ft | 537 kts | 58° |
| 2026-04-26 13:46 | 66.27988 | -63.51917 | 37545 ft | 537 kts | 59° |
| 2026-04-26 13:47 | 66.30876 | -63.34807 | 37469 ft | 536 kts | 59° |
| 2026-04-26 13:47 | 66.33732 | -63.17723 | 37464 ft | 535 kts | 59° |
| 2026-04-26 13:48 | 66.36576 | -63.00557 | 37465 ft | 535 kts | 59° |
| 2026-04-26 13:48 | 66.39377 | -62.83495 | 37474 ft | 535 kts | 60° |
| 2026-04-26 13:49 | 66.42178 | -62.66247 | 37463 ft | 536 kts | 60° |
| 2026-04-26 13:49 | 66.44931 | -62.48896 | 37535 ft | 537 kts | 61° |
| 2026-04-26 13:50 | 66.47632 | -62.31564 | 37452 ft | 534 kts | 61° |
| 2026-04-26 13:50 | 66.50316 | -62.14187 | 37460 ft | 534 kts | 62° |
| 2026-04-26 13:51 | 66.52978 | -61.96822 | 37460 ft | 534 kts | 62° |
| 2026-04-26 13:51 | 66.55608 | -61.79521 | 37458 ft | 534 kts | 62° |
| 2026-04-26 13:52 | 66.58243 | -61.62021 | 37441 ft | 534 kts | 62° |
| 2026-04-26 13:52 | 66.60854 | -61.44505 | 37512 ft | 534 kts | 62° |
| 2026-04-26 13:53 | 66.63438 | -61.26988 | 37438 ft | 533 kts | 62° |
| 2026-04-26 13:53 | 66.65988 | -61.09551 | 37438 ft | 532 kts | 63° |
| 2026-04-26 13:54 | 66.68532 | -60.91989 | 37436 ft | 532 kts | 63° |
| 2026-04-26 13:54 | 66.71057 | -60.74395 | 37436 ft | 533 kts | 63° |
| 2026-04-26 13:55 | 66.74393 | -60.50863 | 37428 ft | 533 kts | 63° |
| 2026-04-26 13:56 | 66.78500 | -60.21443 | 37425 ft | 532 kts | 64° |
| 2026-04-26 13:56 | 66.80938 | -60.03748 | 37418 ft | 531 kts | 64° |
| 2026-04-26 13:57 | 66.83354 | -59.86048 | 37412 ft | 531 kts | 64° |
| 2026-04-26 13:57 | 66.85749 | -59.68311 | 37411 ft | 531 kts | 64° |
| 2026-04-26 13:58 | 66.88133 | -59.50479 | 37395 ft | 531 kts | 65° |
| 2026-04-26 13:58 | 66.90473 | -59.32790 | 37395 ft | 531 kts | 65° |
| 2026-04-26 13:59 | 66.92809 | -59.14927 | 37395 ft | 530 kts | 66° |
| 2026-04-26 13:59 | 66.95127 | -58.97028 | 37374 ft | 530 kts | 66° |
| 2026-04-26 14:00 | 66.99693 | -58.61221 | 37368 ft | 529 kts | 66° |
| 2026-04-26 14:01 | 67.01927 | -58.43416 | 37356 ft | 529 kts | 66° |
| 2026-04-26 14:01 | 67.04159 | -58.25429 | 37354 ft | 529 kts | 67° |
| 2026-04-26 14:02 | 67.06366 | -58.07448 | 37344 ft | 529 kts | 68° |
| 2026-04-26 14:02 | 67.08550 | -57.89447 | 37336 ft | 528 kts | 68° |
| 2026-04-26 14:03 | 67.10712 | -57.71435 | 37327 ft | 528 kts | 68° |
| 2026-04-26 14:03 | 67.12495 | -57.56429 | 37327 ft | 528 kts | 68° |
| 2026-04-26 14:04 | 67.14623 | -57.38339 | 37317 ft | 528 kts | 69° |
| 2026-04-26 14:04 | 67.16730 | -57.20208 | 37303 ft | 528 kts | 69° |
| 2026-04-26 14:05 | 67.18816 | -57.02053 | 37305 ft | 528 kts | 70° |
| 2026-04-26 14:05 | 67.20879 | -56.83887 | 37286 ft | 527 kts | 70° |
| 2026-04-26 14:06 | 67.22907 | -56.65824 | 37290 ft | 527 kts | 70° |
| 2026-04-26 14:06 | 67.24926 | -56.47633 | 37286 ft | 527 kts | 70° |
| 2026-04-26 14:07 | 67.26926 | -56.29393 | 37273 ft | 527 kts | 70° |
| 2026-04-26 14:07 | 67.28903 | -56.11134 | 37268 ft | 527 kts | 71° |
| 2026-04-26 14:08 | 67.30862 | -55.92831 | 37278 ft | 527 kts | 71° |
| 2026-04-26 14:08 | 67.32795 | -55.74536 | 37246 ft | 526 kts | 72° |
| 2026-04-26 14:09 | 67.34706 | -55.56230 | 37252 ft | 526 kts | 72° |
| 2026-04-26 14:09 | 67.36598 | -55.37879 | 37238 ft | 526 kts | 72° |
| 2026-04-26 14:10 | 67.38468 | -55.19501 | 37221 ft | 526 kts | 72° |
| 2026-04-26 14:10 | 67.40306 | -55.01212 | 37216 ft | 526 kts | 72° |
| 2026-04-26 14:11 | 67.43042 | -54.73538 | 37212 ft | 526 kts | 73° |
| 2026-04-26 14:11 | 67.44842 | -54.55033 | 37192 ft | 527 kts | 73° |
| 2026-04-26 14:12 | 67.46615 | -54.36559 | 37192 ft | 528 kts | 73° |
| 2026-04-26 14:12 | 67.48374 | -54.17986 | 37192 ft | 528 kts | 73° |
| 2026-04-26 14:13 | 67.50976 | -53.90029 | 37181 ft | 528 kts | 73° |
| 2026-04-26 14:14 | 67.52686 | -53.71329 | 37207 ft | 528 kts | 74° |
| 2026-04-26 14:14 | 67.54368 | -53.52676 | 37167 ft | 526 kts | 75° |
| 2026-04-26 14:15 | 67.56017 | -53.34135 | 37180 ft | 526 kts | 75° |
| 2026-04-26 14:15 | 67.57652 | -53.15480 | 37166 ft | 526 kts | 75° |
| 2026-04-26 14:16 | 67.59267 | -52.96781 | 37162 ft | 526 kts | 75° |
| 2026-04-26 14:16 | 67.60863 | -52.78029 | 37160 ft | 526 kts | 76° |
| 2026-04-26 14:17 | 67.62438 | -52.59242 | 37150 ft | 526 kts | 76° |
| 2026-04-26 14:17 | 67.63980 | -52.40584 | 37144 ft | 526 kts | 76° |
| 2026-04-26 14:18 | 67.65507 | -52.21800 | 37132 ft | 526 kts | 77° |
| 2026-04-26 14:18 | 67.67015 | -52.02965 | 37131 ft | 526 kts | 77° |
| 2026-04-26 14:19 | 67.68502 | -51.84101 | 37132 ft | 526 kts | 77° |
| 2026-04-26 14:19 | 67.69968 | -51.65197 | 37118 ft | 526 kts | 78° |
| 2026-04-26 14:20 | 67.71410 | -51.46296 | 37107 ft | 527 kts | 78° |
| 2026-04-26 14:20 | 67.72830 | -51.27362 | 37102 ft | 526 kts | 78° |
| 2026-04-26 14:21 | 67.74225 | -51.08465 | 37101 ft | 525 kts | 78° |
| 2026-04-26 14:21 | 67.75592 | -50.89626 | 37102 ft | 525 kts | 79° |
| 2026-04-26 14:22 | 67.76942 | -50.70685 | 37096 ft | 525 kts | 79° |
| 2026-04-26 14:22 | 67.78270 | -50.51735 | 37096 ft | 525 kts | 79° |
| 2026-04-26 14:23 | 67.79579 | -50.32737 | 37094 ft | 525 kts | 79° |
| 2026-04-26 14:23 | 67.80867 | -50.13679 | 37093 ft | 526 kts | 80° |
| 2026-04-26 14:24 | 67.82122 | -49.94775 | 37093 ft | 525 kts | 81° |
| 2026-04-26 14:24 | 67.83362 | -49.75736 | 37093 ft | 524 kts | 81° |
| 2026-04-26 14:25 | 67.84580 | -49.56675 | 37100 ft | 524 kts | 81° |
| 2026-04-26 14:25 | 67.85777 | -49.37588 | 37102 ft | 524 kts | 81° |
| 2026-04-26 14:26 | 67.86949 | -49.18513 | 37109 ft | 524 kts | 81° |
| 2026-04-26 14:26 | 67.88100 | -48.99408 | 37101 ft | 524 kts | 81° |
| 2026-04-26 14:27 | 67.89222 | -48.80409 | 37083 ft | 524 kts | 82° |
| 2026-04-26 14:27 | 67.90326 | -48.61299 | 37082 ft | 524 kts | 82° |
| 2026-04-26 14:28 | 67.91409 | -48.42162 | 37081 ft | 523 kts | 83° |
| 2026-04-26 14:28 | 67.92468 | -48.23017 | 37080 ft | 523 kts | 83° |
| 2026-04-26 14:29 | 67.93507 | -48.03847 | 37073 ft | 523 kts | 83° |
| 2026-04-26 14:29 | 67.94515 | -47.84801 | 37066 ft | 523 kts | 83° |
| 2026-04-26 14:30 | 67.95510 | -47.65605 | 37060 ft | 523 kts | 84° |
| 2026-04-26 14:30 | 67.96479 | -47.46427 | 37048 ft | 522 kts | 84° |
| 2026-04-26 14:31 | 67.97425 | -47.27225 | 37051 ft | 522 kts | 84° |
| 2026-04-26 14:31 | 67.98349 | -47.08021 | 37034 ft | 522 kts | 84° |
| 2026-04-26 14:32 | 67.99251 | -46.88786 | 37021 ft | 522 kts | 85° |
| 2026-04-26 14:32 | 68.00125 | -46.69682 | 37022 ft | 522 kts | 85° |
| 2026-04-26 14:33 | 68.00981 | -46.50467 | 36972 ft | 522 kts | 85° |
| 2026-04-26 14:33 | 68.01815 | -46.31223 | 36974 ft | 521 kts | 86° |
| 2026-04-26 14:34 | 68.02626 | -46.11957 | 36989 ft | 521 kts | 86° |
| 2026-04-26 14:34 | 68.03414 | -45.92705 | 36945 ft | 522 kts | 86° |
| 2026-04-26 14:35 | 68.04178 | -45.73491 | 36948 ft | 523 kts | 86° |
| 2026-04-26 14:35 | 68.04923 | -45.54158 | 36932 ft | 523 kts | 87° |
| 2026-04-26 14:36 | 68.05647 | -45.34784 | 36910 ft | 523 kts | 87° |
| 2026-04-26 14:36 | 68.06347 | -45.15443 | 36914 ft | 523 kts | 88° |
| 2026-04-26 14:37 | 68.07024 | -44.96060 | 36903 ft | 523 kts | 88° |
| 2026-04-26 14:37 | 68.07678 | -44.76689 | 36878 ft | 522 kts | 88° |
| 2026-04-26 14:38 | 68.08306 | -44.57442 | 36866 ft | 522 kts | 88° |
| 2026-04-26 14:38 | 68.08916 | -44.38023 | 36874 ft | 523 kts | 88° |
| 2026-04-26 14:39 | 68.09503 | -44.18574 | 36861 ft | 524 kts | 89° |
| 2026-04-26 14:39 | 68.10070 | -43.99082 | 36844 ft | 523 kts | 89° |
| 2026-04-26 14:40 | 68.10607 | -43.79782 | 36846 ft | 523 kts | 89° |
| 2026-04-26 14:40 | 68.11125 | -43.60341 | 36842 ft | 523 kts | 89° |
| 2026-04-26 14:41 | 68.11620 | -43.40892 | 36847 ft | 523 kts | 90° |
| 2026-04-26 14:41 | 68.12092 | -43.21457 | 36854 ft | 522 kts | 90° |
| 2026-04-26 14:42 | 68.12542 | -43.01997 | 36839 ft | 522 kts | 90° |
| 2026-04-26 14:42 | 68.12968 | -42.82540 | 36856 ft | 523 kts | 90° |
| 2026-04-26 14:43 | 68.13369 | -42.63166 | 36859 ft | 523 kts | 90° |
| 2026-04-26 14:43 | 68.13751 | -42.43661 | 36867 ft | 523 kts | 91° |
| 2026-04-26 14:44 | 68.14109 | -42.24181 | 36867 ft | 523 kts | 91° |
| 2026-04-26 14:44 | 68.14318 | -42.04698 | 36867 ft | 522 kts | 93° |
| 2026-04-26 14:45 | 68.14392 | -41.85249 | 36871 ft | 521 kts | 93° |
| 2026-04-26 14:45 | 68.14447 | -41.65740 | 36866 ft | 521 kts | 94° |
| 2026-04-26 14:46 | 68.14501 | -41.46291 | 36874 ft | 521 kts | 94° |
| 2026-04-26 14:46 | 68.14540 | -41.26960 | 36884 ft | 521 kts | 94° |
| 2026-04-26 14:47 | 68.14558 | -41.07527 | 36887 ft | 521 kts | 94° |
| 2026-04-26 14:47 | 68.14458 | -40.88074 | 36886 ft | 519 kts | 96° |
| 2026-04-26 14:48 | 68.14150 | -40.68700 | 36891 ft | 519 kts | 97° |
| 2026-04-26 14:48 | 68.13864 | -40.52633 | 36889 ft | 519 kts | 97° |
| 2026-04-26 14:49 | 68.13468 | -40.30136 | 36890 ft | 519 kts | 97° |
| 2026-04-26 14:49 | 68.13122 | -40.10837 | 36878 ft | 518 kts | 97° |
| 2026-04-26 14:50 | 68.12816 | -39.94648 | 36898 ft | 518 kts | 97° |
| 2026-04-26 14:50 | 68.12432 | -39.75456 | 36897 ft | 518 kts | 98° |
| 2026-04-26 14:51 | 68.12022 | -39.56135 | 36910 ft | 518 kts | 98° |
| 2026-04-26 14:51 | 68.11591 | -39.36858 | 36911 ft | 518 kts | 98° |
| 2026-04-26 14:52 | 68.11140 | -39.17726 | 36909 ft | 517 kts | 98° |
| 2026-04-26 14:52 | 68.10664 | -38.98470 | 36930 ft | 517 kts | 98° |
| 2026-04-26 14:53 | 68.10167 | -38.79264 | 36928 ft | 516 kts | 99° |
| 2026-04-26 14:53 | 68.09647 | -38.60089 | 36928 ft | 517 kts | 99° |
| 2026-04-26 14:54 | 68.09104 | -38.40894 | 36950 ft | 517 kts | 99° |
| 2026-04-26 14:54 | 68.08540 | -38.21725 | 36950 ft | 516 kts | 100° |
| 2026-04-26 14:55 | 68.07953 | -38.02520 | 36963 ft | 516 kts | 100° |
| 2026-04-26 14:55 | 68.07348 | -37.83475 | 36974 ft | 516 kts | 100° |
| 2026-04-26 14:56 | 68.06718 | -37.64343 | 36971 ft | 516 kts | 100° |
| 2026-04-26 14:56 | 68.06067 | -37.45235 | 36983 ft | 516 kts | 101° |
| 2026-04-26 14:57 | 68.05394 | -37.26210 | 36993 ft | 516 kts | 101° |
| 2026-04-26 14:57 | 68.04697 | -37.07084 | 36993 ft | 516 kts | 101° |
| 2026-04-26 14:58 | 68.03978 | -36.87996 | 37012 ft | 516 kts | 101° |
| 2026-04-26 14:58 | 68.03236 | -36.68899 | 37031 ft | 516 kts | 101° |
| 2026-04-26 14:59 | 68.02476 | -36.49860 | 37027 ft | 516 kts | 102° |
| 2026-04-26 14:59 | 68.01691 | -36.30803 | 37054 ft | 515 kts | 102° |
| 2026-04-26 15:00 | 68.00893 | -36.11962 | 37083 ft | 514 kts | 102° |
| 2026-04-26 15:00 | 68.00066 | -35.92990 | 37107 ft | 514 kts | 102° |
| 2026-04-26 15:01 | 67.99226 | -35.74204 | 37147 ft | 514 kts | 102° |
| 2026-04-26 15:01 | 67.98378 | -35.55733 | 37147 ft | 513 kts | 102° |
| 2026-04-26 15:02 | 67.97482 | -35.36698 | 37169 ft | 513 kts | 102° |
| 2026-04-26 15:02 | 67.96572 | -35.17832 | 37179 ft | 513 kts | 103° |
| 2026-04-26 15:03 | 67.95641 | -34.99001 | 37191 ft | 513 kts | 103° |
| 2026-04-26 15:03 | 67.94687 | -34.80155 | 37189 ft | 513 kts | 103° |
| 2026-04-26 15:04 | 67.93712 | -34.61339 | 37150 ft | 513 kts | 103° |
| 2026-04-26 15:04 | 67.92724 | -34.42670 | 37174 ft | 512 kts | 103° |
| 2026-04-26 15:05 | 67.91708 | -34.23920 | 37174 ft | 512 kts | 103° |
| 2026-04-26 15:05 | 67.90672 | -34.05205 | 37176 ft | 512 kts | 103° |
| 2026-04-26 15:06 | 67.89615 | -33.86502 | 37169 ft | 511 kts | 103° |
| 2026-04-26 15:06 | 67.88537 | -33.67821 | 37168 ft | 511 kts | 104° |
| 2026-04-26 15:07 | 67.86888 | -33.39989 | 37149 ft | 511 kts | 104° |
| 2026-04-26 15:07 | 67.85759 | -33.21394 | 37146 ft | 510 kts | 104° |
| 2026-04-26 15:08 | 67.84613 | -33.02882 | 37143 ft | 510 kts | 104° |
| 2026-04-26 15:08 | 67.83441 | -32.84304 | 37129 ft | 510 kts | 104° |
| 2026-04-26 15:09 | 67.82251 | -32.65803 | 37122 ft | 510 kts | 104° |
| 2026-04-26 15:09 | 67.81038 | -32.47281 | 37132 ft | 510 kts | 105° |
| 2026-04-26 15:10 | 67.80014 | -32.31908 | 37114 ft | 510 kts | 105° |
| 2026-04-26 15:10 | 67.78550 | -32.10292 | 37119 ft | 510 kts | 105° |
| 2026-04-26 15:11 | 67.77285 | -31.91972 | 37077 ft | 510 kts | 105° |
| 2026-04-26 15:11 | 67.75990 | -31.73542 | 37115 ft | 509 kts | 105° |
| 2026-04-26 15:12 | 67.74677 | -31.55182 | 37115 ft | 508 kts | 105° |
| 2026-04-26 15:12 | 67.73345 | -31.36860 | 37087 ft | 508 kts | 105° |
| 2026-04-26 15:13 | 67.71993 | -31.18574 | 37104 ft | 508 kts | 106° |
| 2026-04-26 15:13 | 67.70621 | -31.00298 | 37102 ft | 508 kts | 106° |
| 2026-04-26 15:14 | 67.69236 | -30.82154 | 37091 ft | 508 kts | 106° |
| 2026-04-26 15:14 | 67.67824 | -30.63929 | 37093 ft | 508 kts | 106° |
| 2026-04-26 15:15 | 67.66396 | -30.45725 | 37091 ft | 509 kts | 108° |
| 2026-04-26 15:15 | 67.64938 | -30.27479 | 37078 ft | 509 kts | 108° |
| 2026-04-26 15:16 | 67.63461 | -30.09293 | 37077 ft | 509 kts | 107° |
| 2026-04-26 15:16 | 67.61968 | -29.91128 | 37090 ft | 509 kts | 109° |
| 2026-04-26 15:17 | 67.60707 | -29.76043 | 37068 ft | 509 kts | 108° |
| 2026-04-26 15:17 | 67.58910 | -29.54849 | 37070 ft | 509 kts | 107° |
| 2026-04-26 15:18 | 67.57359 | -29.36749 | 37075 ft | 509 kts | 109° |
| 2026-04-26 15:18 | 67.55783 | -29.18693 | 37057 ft | 507 kts | 108° |
| 2026-04-26 15:19 | 67.54199 | -29.00818 | 37055 ft | 508 kts | 109° |
| 2026-04-26 15:19 | 67.52586 | -28.82844 | 37061 ft | 507 kts | 109° |
| 2026-04-26 15:20 | 67.50953 | -28.64886 | 37047 ft | 507 kts | 107° |
| 2026-04-26 15:20 | 67.49303 | -28.46971 | 37049 ft | 507 kts | 109° |
| 2026-04-26 15:21 | 67.47632 | -28.29098 | 37055 ft | 506 kts | 110° |
| 2026-04-26 15:21 | 67.45937 | -28.11269 | 37044 ft | 506 kts | 109° |
| 2026-04-26 15:22 | 67.44243 | -27.93585 | 37035 ft | 505 kts | 110° |
| 2026-04-26 15:22 | 67.42523 | -27.75839 | 37048 ft | 505 kts | 109° |
| 2026-04-26 15:23 | 67.40781 | -27.58117 | 37033 ft | 505 kts | 111° |
| 2026-04-26 15:23 | 67.39018 | -27.40433 | 37042 ft | 505 kts | 109° |
| 2026-04-26 15:24 | 67.37235 | -27.22770 | 37045 ft | 505 kts | 110° |
| 2026-04-26 15:24 | 67.35437 | -27.05111 | 37024 ft | 505 kts | 111° |
| 2026-04-26 15:25 | 67.33927 | -26.90491 | 37038 ft | 505 kts | 111° |
| 2026-04-26 15:25 | 67.31783 | -26.70050 | 36984 ft | 505 kts | 110° |
| 2026-04-26 15:26 | 67.29932 | -26.52572 | 37020 ft | 504 kts | 110° |
| 2026-04-26 15:26 | 67.28057 | -26.35057 | 37029 ft | 504 kts | 110° |
| 2026-04-26 15:27 | 67.26164 | -26.17601 | 37016 ft | 504 kts | 110° |
| 2026-04-26 15:27 | 67.24252 | -26.00160 | 37024 ft | 504 kts | 111° |
| 2026-04-26 15:28 | 67.22323 | -25.82756 | 37025 ft | 504 kts | 111° |
| 2026-04-26 15:28 | 67.20776 | -25.68928 | 37007 ft | 504 kts | 111° |
| 2026-04-26 15:30 | 67.20201 | -25.63821 | 37006 ft | 502 kts | 111° |
| 2026-04-26 15:31 | 67.19236 | -25.55267 | 37008 ft | 489 kts | 112° |
| 2026-04-26 15:31 | 67.17384 | -25.38930 | 37004 ft | 463 kts | 111° |
| 2026-04-26 15:32 | 67.15285 | -25.20786 | 37016 ft | 450 kts | 111° |
| 2026-04-26 15:32 | 67.12863 | -25.00192 | 37010 ft | 452 kts | 111° |
| 2026-04-26 15:33 | 67.11029 | -24.84711 | 37009 ft | 455 kts | 112° |
| 2026-04-26 15:33 | 67.09162 | -24.69078 | 37007 ft | 460 kts | 112° |
| 2026-04-26 15:34 | 67.07260 | -24.53289 | 37004 ft | 466 kts | 112° |
| 2026-04-26 15:34 | 67.05332 | -24.37437 | 37004 ft | 471 kts | 112° |
| 2026-04-26 15:35 | 67.03352 | -24.21312 | 37001 ft | 478 kts | 112° |
| 2026-04-26 15:35 | 67.01328 | -24.04989 | 37007 ft | 482 kts | 112° |
| 2026-04-26 15:36 | 66.99266 | -23.88521 | 37000 ft | 488 kts | 112° |
| 2026-04-26 15:36 | 66.97522 | -23.74722 | 36999 ft | 493 kts | 112° |
| 2026-04-26 15:37 | 66.95387 | -23.57990 | 36999 ft | 499 kts | 112° |
| 2026-04-26 15:37 | 66.92851 | -23.38322 | 37000 ft | 503 kts | 112° |
| 2026-04-26 15:38 | 66.91009 | -23.24163 | 36996 ft | 502 kts | 112° |
| 2026-04-26 15:38 | 66.88816 | -23.07464 | 36685 ft | 499 kts | 113° |
| 2026-04-26 15:39 | 66.87691 | -22.98970 | 36437 ft | 500 kts | 113° |
| 2026-04-26 15:39 | 66.86590 | -22.90700 | 36131 ft | 499 kts | 112° |
| 2026-04-26 15:39 | 66.85482 | -22.82407 | 35886 ft | 491 kts | 113° |
| 2026-04-26 15:39 | 66.84710 | -22.77084 | 35714 ft | 482 kts | 119° |
| 2026-04-26 15:40 | 66.82266 | -22.67944 | 35467 ft | 455 kts | 141° |
| 2026-04-26 15:40 | 66.79800 | -22.63223 | 35287 ft | 436 kts | 155° |
| 2026-04-26 15:40 | 66.77145 | -22.59714 | 35144 ft | 425 kts | 158° |
| 2026-04-26 15:40 | 66.74514 | -22.56528 | 34997 ft | 415 kts | 159° |
| 2026-04-26 15:41 | 66.71924 | -22.53431 | 34823 ft | 407 kts | 159° |
| 2026-04-26 15:41 | 66.69382 | -22.50393 | 34559 ft | 401 kts | 159° |
| 2026-04-26 15:41 | 66.66869 | -22.47395 | 34257 ft | 396 kts | 160° |
| 2026-04-26 15:41 | 66.64327 | -22.44862 | 33947 ft | 388 kts | 167° |
| 2026-04-26 15:42 | 66.61735 | -22.43313 | 33546 ft | 381 kts | 175° |
| 2026-04-26 15:42 | 66.59134 | -22.42851 | 33092 ft | 376 kts | 184° |
| 2026-04-26 15:42 | 66.56529 | -22.43525 | 32487 ft | 376 kts | 193° |
| 2026-04-26 15:42 | 66.53994 | -22.45197 | 32000 ft | 375 kts | 198° |
| 2026-04-26 15:43 | 66.51537 | -22.47250 | 31614 ft | 372 kts | 200° |
| 2026-04-26 15:43 | 66.49109 | -22.49482 | 31228 ft | 370 kts | 201° |
| 2026-04-26 15:43 | 66.44336 | -22.53996 | 30609 ft | 362 kts | 201° |
| 2026-04-26 15:44 | 66.41981 | -22.56187 | 30232 ft | 360 kts | 201° |
| 2026-04-26 15:44 | 66.37200 | -22.60530 | 28645 ft | 375 kts | 200° |
| 2026-04-26 15:44 | 66.34743 | -22.62725 | 27886 ft | 382 kts | 200° |
| 2026-04-26 15:45 | 66.29731 | -22.67158 | 26960 ft | 381 kts | 200° |
| 2026-04-26 15:45 | 66.27237 | -22.69356 | 26566 ft | 379 kts | 200° |
| 2026-04-26 15:46 | 66.22295 | -22.73701 | 25739 ft | 374 kts | 200° |
| 2026-04-26 15:46 | 66.19850 | -22.75847 | 25335 ft | 372 kts | 200° |
| 2026-04-26 15:46 | 66.17414 | -22.77981 | 24952 ft | 369 kts | 200° |
| 2026-04-26 15:46 | 66.15809 | -22.79385 | 24689 ft | 368 kts | 200° |
| 2026-04-26 15:47 | 66.12594 | -22.82193 | 24195 ft | 365 kts | 200° |
| 2026-04-26 15:47 | 66.07821 | -22.86346 | 23412 ft | 361 kts | 200° |
| 2026-04-26 15:47 | 66.05458 | -22.88396 | 22955 ft | 359 kts | 200° |
| 2026-04-26 15:48 | 66.03107 | -22.90432 | 22522 ft | 357 kts | 199° |
| 2026-04-26 15:48 | 66.00773 | -22.92449 | 22107 ft | 355 kts | 200° |
| 2026-04-26 15:48 | 65.98452 | -22.94450 | 21711 ft | 352 kts | 199° |
| 2026-04-26 15:48 | 65.96152 | -22.96431 | 21289 ft | 349 kts | 199° |
| 2026-04-26 15:49 | 65.93859 | -22.98401 | 20898 ft | 347 kts | 199° |
| 2026-04-26 15:49 | 65.91587 | -23.00349 | 20484 ft | 345 kts | 199° |
| 2026-04-26 15:49 | 65.89328 | -23.02283 | 20082 ft | 343 kts | 199° |
| 2026-04-26 15:49 | 65.87082 | -23.04201 | 19680 ft | 341 kts | 199° |
| 2026-04-26 15:50 | 65.84842 | -23.06111 | 19297 ft | 339 kts | 199° |
| 2026-04-26 15:50 | 65.82625 | -23.07997 | 18902 ft | 337 kts | 199° |
| 2026-04-26 15:50 | 65.80418 | -23.09873 | 18539 ft | 335 kts | 199° |
| 2026-04-26 15:50 | 65.78249 | -23.11713 | 18057 ft | 335 kts | 199° |
| 2026-04-26 15:51 | 65.76019 | -23.13601 | 17560 ft | 335 kts | 199° |
| 2026-04-26 15:51 | 65.73849 | -23.15435 | 17140 ft | 332 kts | 199° |
| 2026-04-26 15:51 | 65.71673 | -23.17270 | 16734 ft | 330 kts | 198° |
| 2026-04-26 15:51 | 65.69503 | -23.19097 | 16319 ft | 329 kts | 199° |
| 2026-04-26 15:52 | 65.67349 | -23.20907 | 15934 ft | 327 kts | 199° |
| 2026-04-26 15:52 | 65.65203 | -23.22707 | 15511 ft | 325 kts | 199° |
| 2026-04-26 15:52 | 65.63068 | -23.24497 | 15131 ft | 323 kts | 199° |
| 2026-04-26 15:52 | 65.61672 | -23.25665 | 14861 ft | 322 kts | 198° |
| 2026-04-26 15:53 | 65.58843 | -23.28026 | 14341 ft | 320 kts | 199° |
| 2026-04-26 15:53 | 65.56738 | -23.29780 | 13939 ft | 318 kts | 198° |
| 2026-04-26 15:53 | 65.54642 | -23.31523 | 13535 ft | 317 kts | 199° |
| 2026-04-26 15:53 | 65.52590 | -23.33228 | 13169 ft | 314 kts | 198° |
| 2026-04-26 15:54 | 65.50530 | -23.34935 | 12734 ft | 312 kts | 198° |
| 2026-04-26 15:54 | 65.48482 | -23.36629 | 12338 ft | 311 kts | 198° |
| 2026-04-26 15:54 | 65.46439 | -23.38317 | 11928 ft | 309 kts | 198° |
| 2026-04-26 15:54 | 65.44403 | -23.39996 | 11526 ft | 307 kts | 198° |
| 2026-04-26 15:55 | 65.42390 | -23.41654 | 11118 ft | 305 kts | 198° |
| 2026-04-26 15:55 | 65.40382 | -23.43306 | 10702 ft | 304 kts | 198° |
| 2026-04-26 15:55 | 65.38392 | -23.44940 | 10383 ft | 299 kts | 197° |
| 2026-04-26 15:55 | 65.36448 | -23.46474 | 10196 ft | 288 kts | 197° |
| 2026-04-26 15:56 | 65.34596 | -23.48087 | 10051 ft | 278 kts | 200° |
| 2026-04-26 15:56 | 65.32780 | -23.49711 | 9887 ft | 279 kts | 200° |
| 2026-04-26 15:56 | 65.31017 | -23.51346 | 9939 ft | 272 kts | 200° |
| 2026-04-26 15:56 | 65.29193 | -23.52957 | 9959 ft | 290 kts | 199° |
| 2026-04-26 15:57 | 65.27249 | -23.54655 | 9975 ft | 301 kts | 202° |
| 2026-04-26 15:57 | 65.25322 | -23.56614 | 9925 ft | 302 kts | 200° |
| 2026-04-26 15:57 | 65.23387 | -23.58364 | 9842 ft | 291 kts | 200° |
| 2026-04-26 15:57 | 65.22157 | -23.59514 | 9759 ft | 284 kts | 201° |
| 2026-04-26 15:58 | 65.19628 | -23.61993 | 9675 ft | 311 kts | 202° |
| 2026-04-26 15:58 | 65.17553 | -23.64044 | 9679 ft | 335 kts | 201° |
| 2026-04-26 15:58 | 65.15342 | -23.66079 | 9490 ft | 348 kts | 199° |
| 2026-04-26 15:58 | 65.13058 | -23.67961 | 9368 ft | 350 kts | 197° |
| 2026-04-26 15:59 | 65.10763 | -23.69713 | 9655 ft | 344 kts | 198° |
| 2026-04-26 15:59 | 65.08462 | -23.71506 | 9968 ft | 349 kts | 197° |
| 2026-04-26 15:59 | 65.06155 | -23.73333 | 9724 ft | 349 kts | 198° |
| 2026-04-26 15:59 | 65.03878 | -23.75115 | 9472 ft | 338 kts | 197° |
| 2026-04-26 16:00 | 65.01686 | -23.76859 | 9198 ft | 328 kts | 198° |
| 2026-04-26 16:00 | 64.99566 | -23.78528 | 8969 ft | 317 kts | 197° |
| 2026-04-26 16:00 | 64.97472 | -23.80161 | 8578 ft | 324 kts | 198° |
| 2026-04-26 16:00 | 64.95291 | -23.81794 | 8384 ft | 339 kts | 196° |
| 2026-04-26 16:01 | 64.93034 | -23.83288 | 8319 ft | 331 kts | 191° |
| 2026-04-26 16:01 | 64.90816 | -23.84202 | 8269 ft | 314 kts | 188° |
| 2026-04-26 16:01 | 64.88715 | -23.85052 | 8521 ft | 303 kts | 190° |
| 2026-04-26 16:01 | 64.86639 | -23.86021 | 8753 ft | 304 kts | 191° |
| 2026-04-26 16:02 | 64.84577 | -23.87118 | 8969 ft | 303 kts | 193° |
| 2026-04-26 16:02 | 64.82541 | -23.88291 | 8842 ft | 305 kts | 193° |
| 2026-04-26 16:02 | 64.80409 | -23.89473 | 8396 ft | 329 kts | 192° |
| 2026-04-26 16:02 | 64.78857 | -23.90320 | 8312 ft | 343 kts | 192° |
| 2026-04-26 16:03 | 64.75750 | -23.91812 | 8032 ft | 340 kts | 190° |
| 2026-04-26 16:03 | 64.73454 | -23.93114 | 8140 ft | 340 kts | 194° |
| 2026-04-26 16:03 | 64.71146 | -23.94568 | 8203 ft | 344 kts | 193° |
| 2026-04-26 16:03 | 64.68783 | -23.95491 | 8077 ft | 343 kts | 186° |
| 2026-04-26 16:04 | 64.66414 | -23.96046 | 8068 ft | 342 kts | 183° |
| 2026-04-26 16:04 | 64.64034 | -23.95912 | 7926 ft | 343 kts | 173° |
| 2026-04-26 16:04 | 64.61693 | -23.94783 | 7808 ft | 344 kts | 163° |
| 2026-04-26 16:04 | 64.59473 | -23.92871 | 7809 ft | 345 kts | 159° |
| 2026-04-26 16:05 | 64.57222 | -23.90928 | 7862 ft | 345 kts | 160° |
| 2026-04-26 16:05 | 64.54927 | -23.89069 | 7902 ft | 345 kts | 161° |
| 2026-04-26 16:05 | 64.52697 | -23.87243 | 7876 ft | 344 kts | 159° |
| 2026-04-26 16:05 | 64.50478 | -23.85081 | 7998 ft | 346 kts | 156° |
| 2026-04-26 16:06 | 64.48272 | -23.82644 | 7113 ft | 319 kts | 152° |
| 2026-04-26 16:06 | 64.46504 | -23.80274 | 9417 ft | 279 kts | 146° |
| 2026-04-26 16:06 | 64.45161 | -23.77391 | 10556 ft | 246 kts | 134° |
| 2026-04-26 16:06 | 64.44090 | -23.74643 | 11034 ft | 216 kts | 135° |
| 2026-04-26 16:07 | 64.43064 | -23.72213 | 10789 ft | 214 kts | 138° |
| 2026-04-26 16:07 | 64.41926 | -23.69858 | 10165 ft | 230 kts | 142° |
| 2026-04-26 16:07 | 64.40640 | -23.67465 | 9509 ft | 244 kts | 143° |
| 2026-04-26 16:07 | 64.39200 | -23.64928 | 9018 ft | 280 kts | 144° |
| 2026-04-26 16:08 | 64.37534 | -23.62041 | 8746 ft | 316 kts | 142° |
| 2026-04-26 16:08 | 64.36358 | -23.59879 | 8533 ft | 334 kts | 143° |
| 2026-04-26 16:08 | 64.33879 | -23.55368 | 7697 ft | 337 kts | 144° |
| 2026-04-26 16:08 | 64.32082 | -23.52050 | 7223 ft | 325 kts | 137° |
| 2026-04-26 16:09 | 64.30351 | -23.48884 | 6906 ft | 308 kts | 145° |
| 2026-04-26 16:09 | 64.28583 | -23.46162 | 6642 ft | 305 kts | 148° |
| 2026-04-26 16:09 | 64.26766 | -23.43779 | 6286 ft | 305 kts | 152° |
| 2026-04-26 16:09 | 64.24804 | -23.41506 | 5881 ft | 327 kts | 151° |
| 2026-04-26 16:10 | 64.22879 | -23.38581 | 5677 ft | 334 kts | 144° |
| 2026-04-26 16:10 | 64.21024 | -23.35363 | 5602 ft | 335 kts | 143° |
| 2026-04-26 16:10 | 64.19190 | -23.32038 | 5410 ft | 336 kts | 142° |
| 2026-04-26 16:10 | 64.17380 | -23.28677 | 4917 ft | 331 kts | 141° |
| 2026-04-26 16:11 | 64.15621 | -23.25355 | 4481 ft | 324 kts | 141° |
| 2026-04-26 16:11 | 64.13866 | -23.22100 | 3657 ft | 323 kts | 142° |
| 2026-04-26 16:11 | 64.12044 | -23.18874 | 3033 ft | 324 kts | 135° |
| 2026-04-26 16:11 | 64.10573 | -23.15151 | 2858 ft | 306 kts | 144° |
| 2026-04-26 16:12 | 64.09031 | -23.11954 | 2590 ft | 294 kts | 135° |
| 2026-04-26 16:12 | 64.07790 | -23.08289 | 2168 ft | 291 kts | 121° |
| 2026-04-26 16:12 | 64.05354 | -23.01555 | 1952 ft | 262 kts | 136° |
| 2026-04-26 16:13 | 64.04082 | -22.98703 | 1842 ft | 251 kts | 135° |
| 2026-04-26 16:13 | 64.02916 | -22.95951 | 1799 ft | 237 kts | 134° |
| 2026-04-26 16:13 | 64.01829 | -22.93276 | 1798 ft | 223 kts | 133° |
| 2026-04-26 16:13 | 64.00821 | -22.90733 | 1794 ft | 209 kts | 132° |
| 2026-04-26 16:14 | 63.99881 | -22.88327 | 1803 ft | 196 kts | 132° |
| 2026-04-26 16:14 | 63.99034 | -22.86046 | 1806 ft | 181 kts | 122° |
| 2026-04-26 16:14 | 63.98499 | -22.80670 | 1499 ft | 177 kts | 94° |
| 2026-04-26 16:15 | 63.98509 | -22.77871 | 1241 ft | 176 kts | 96° |
| 2026-04-26 16:15 | 63.98504 | -22.75085 | 991 ft | 173 kts | 95° |
| 2026-04-26 16:15 | 63.98505 | -22.72429 | 749 ft | 162 kts | 95° |
| 2026-04-26 16:16 | 63.98516 | -22.67763 | 422 ft | 136 kts | 93° |
| 2026-04-26 16:16 | 63.98516 | -22.65593 | 240 ft | 137 kts | 95° |
| 2026-04-26 16:16 | 63.98509 | -22.63595 | 256 ft | 116 kts | 95° |
| 2026-04-26 16:16 | 63.98516 | -22.61618 | 635 ft | 136 kts | 94° |
| 2026-04-26 16:17 | 63.98517 | -22.59282 | 1165 ft | 160 kts | 95° |
| 2026-04-26 16:17 | 63.98555 | -22.56603 | 1691 ft | 178 kts | 92° |
| 2026-04-26 16:17 | 63.98668 | -22.53566 | 1795 ft | 207 kts | 90° |
| 2026-04-26 16:17 | 63.98779 | -22.50133 | 1972 ft | 225 kts | 94° |
| 2026-04-26 16:18 | 63.98719 | -22.46557 | 2586 ft | 226 kts | 96° |
| 2026-04-26 16:18 | 64.00222 | -22.40496 | 3006 ft | 248 kts | 28° |
| 2026-04-26 16:19 | 64.03521 | -22.42051 | 3012 ft | 263 kts | 311° |
| 2026-04-26 16:19 | 64.04451 | -22.45594 | 2595 ft | 271 kts | 282° |
| 2026-04-26 16:19 | 64.04645 | -22.52489 | 2900 ft | 255 kts | 259° |
| 2026-04-26 16:20 | 64.04580 | -22.57925 | 3109 ft | 259 kts | 267° |
| 2026-04-26 16:20 | 64.04579 | -22.65931 | 2954 ft | 240 kts | 266° |
| 2026-04-26 16:20 | 64.04585 | -22.69666 | 2812 ft | 231 kts | 266° |
| 2026-04-26 16:21 | 64.04596 | -22.73275 | 2650 ft | 224 kts | 266° |
| 2026-04-26 16:21 | 64.04607 | -22.76738 | 2456 ft | 219 kts | 266° |
| 2026-04-26 16:21 | 64.04593 | -22.80222 | 2153 ft | 218 kts | 258° |
| 2026-04-26 16:21 | 64.04032 | -22.83253 | 2048 ft | 199 kts | 220° |
| 2026-04-26 16:22 | 64.02971 | -22.84970 | 1996 ft | 179 kts | 199° |
| 2026-04-26 16:22 | 64.01852 | -22.85857 | 1902 ft | 164 kts | 184° |
| 2026-04-26 16:22 | 64.00755 | -22.86187 | 1799 ft | 155 kts | 178° |
| 2026-04-26 16:22 | 63.99678 | -22.86354 | 1791 ft | 155 kts | 176° |
| 2026-04-26 16:23 | 63.98767 | -22.85450 | 1778 ft | 147 kts | 124° |
| 2026-04-26 16:23 | 63.98465 | -22.83249 | 1702 ft | 155 kts | 97° |
| 2026-04-26 16:23 | 63.98501 | -22.80728 | 1486 ft | 156 kts | 94° |
| 2026-04-26 16:23 | 63.98506 | -22.78312 | 1268 ft | 150 kts | 98° |
| 2026-04-26 16:24 | 63.98502 | -22.76002 | 1070 ft | 141 kts | 96° |
| 2026-04-26 16:24 | 63.98504 | -22.73790 | 865 ft | 139 kts | 96° |
| 2026-04-26 16:24 | 63.98503 | -22.71623 | 679 ft | 139 kts | 96° |
| 2026-04-26 16:24 | 63.98502 | -22.69417 | 475 ft | 139 kts | 94° |
| 2026-04-26 16:25 | 63.98506 | -22.67229 | 337 ft | 136 kts | 95° |
| 2026-04-26 16:25 | 63.98508 | -22.65100 | 209 ft | 127 kts | 95° |
| 2026-04-26 16:25 | 63.98510 | -22.63281 | 169 ft | 103 kts | 96° |
| 2026-04-26 16:25 | 63.98501 | -22.61863 | 161 ft | 78 kts | 90° |
| 2026-04-26 16:26 | 63.98502 | -22.61110 | 156 ft | 66 kts | 91° |
| 2026-04-26 16:26 | 63.98498 | -22.60187 | 155 ft | 39 kts | 91° |
| 2026-04-26 16:26 | 63.98498 | -22.59674 | 148 ft | 31 kts | 86° |
| 2026-04-26 16:26 | 63.98527 | -22.59305 | 144 ft | 15 kts | 35° |
| 2026-04-26 16:27 | 63.98615 | -22.59301 | 145 ft | 12 kts | 357° |
| 2026-04-26 16:27 | 63.98699 | -22.59309 | 147 ft | 12 kts | 357° |
| 2026-04-26 16:27 | 63.98775 | -22.59319 | 149 ft | 9 kts | 349° |
| 2026-04-26 16:27 | 63.98867 | -22.59388 | 152 ft | 21 kts | 340° |
| 2026-04-26 16:28 | 63.99024 | -22.59702 | 161 ft | 44 kts | 315° |
| 2026-04-26 16:28 | 63.99174 | -22.60251 | 171 ft | 37 kts | 270° |
| 2026-04-26 16:28 | 63.99168 | -22.60817 | 171 ft | 35 kts | 268° |
| 2026-04-26 16:28 | 63.99173 | -22.61349 | 169 ft | 32 kts | 269° |
| 2026-04-26 16:29 | 63.99177 | -22.61824 | 167 ft | 28 kts | 275° |
| 2026-04-26 16:29 | 63.99236 | -22.62005 | 167 ft | 8 kts | 333° |
| 2026-04-26 16:29 | 63.99253 | -22.62091 | 167 ft | 0 kts | 289° |
| 2026-04-26 16:30 | 63.99264 | -22.62157 | 170 ft | 6 kts | 290° |
| 2026-04-26 16:30 | 63.99288 | -22.62236 | 167 ft | 0 kts | 309° |